PWSweather.com
Personal Weather Stations
Station Observations
DL5ARK
SonnebergDE

SonnebergDE

Lat: 50.34904861, Lon: 11.18112087

Elevation: 1214

Station Type: Selfmade

http://www.sumbarg.de

High Low Average
Temperature 49.4°F9.7°C 42.7°F5.9°C 47.6°F8.7°C
Dew Point 53.2°F11.8°C 46.6°F8.1°C 50.9°F10.5°C
Winds 17.4 mph 28.0 kmh Calm Calm 4.0 mph W6.4 kmh W
Wind Gusts 17.6 mph28.3 kmh -- 4.0 mph6.4 kmh
Humidity 96% 82% 90%
Pressure 30.00 in1015.9 mb 29.48 in998.3 mb -
Precipitation 0.24 in6.1 mm - -
Hour Temp Dew Point Humidity Winds Wind Gusts Pressure Precip Precip Rate Daily Precip Total
12:00 AM 42.7°F5.9°C 46.6°F8.1°C 93% Calm Calm -- 30.00 in1015.9 mb 0.00 in0.0 mm 0.00 in0.0 mm 0.00 in0.0 mm
12:03 AM 42.9°F6.1°C 46.7°F8.2°C 94% Calm Calm -- 30.00 in1015.9 mb 0.00 in0.0 mm 0.00 in0.0 mm 0.00 in0.0 mm
12:06 AM 42.9°F6.1°C 46.6°F8.1°C 93% Calm Calm -- 30.00 in1015.9 mb 0.00 in0.0 mm 0.00 in0.0 mm 0.00 in0.0 mm
12:09 AM 43.3°F6.3°C 46.8°F8.2°C 94% Calm Calm -- 30.00 in1015.9 mb 0.00 in0.0 mm 0.00 in0.0 mm 0.02 in0.5 mm
12:12 AM 43.4°F6.3°C 46.9°F8.3°C 93% Calm Calm -- 30.00 in1015.9 mb 0.00 in0.0 mm 0.00 in0.0 mm 0.02 in0.5 mm
12:15 AM 43.4°F6.3°C 46.8°F8.2°C 93% Calm Calm -- 30.00 in1015.9 mb 0.00 in0.0 mm 0.00 in0.0 mm 0.02 in0.5 mm
12:18 AM 43.8°F6.6°C 47.0°F8.3°C 93% 0.4 mph NW0.6 kmh NW 0.4 mph0.6 kmh 30.00 in1015.9 mb 0.00 in0.0 mm 0.00 in0.0 mm 0.02 in0.5 mm
12:21 AM 44.0°F6.7°C 47.1°F8.4°C 94% 2.0 mph NNW3.2 kmh NNW 2.0 mph3.2 kmh 30.00 in1015.9 mb 0.00 in0.0 mm 0.00 in0.0 mm 0.02 in0.5 mm
12:24 AM 43.9°F6.6°C 47.3°F8.5°C 94% 3.6 mph NW5.8 kmh NW 3.7 mph6.0 kmh 30.00 in1015.9 mb 0.00 in0.0 mm 0.00 in0.0 mm 0.02 in0.5 mm
12:27 AM 44.0°F6.7°C 47.5°F8.6°C 94% 2.8 mph 4.5 kmh 2.8 mph4.5 kmh 30.00 in1015.9 mb 0.00 in0.0 mm 0.00 in0.0 mm 0.02 in0.5 mm
12:30 AM 44.3°F6.8°C 48.0°F8.9°C 95% 3.2 mph NNW5.1 kmh NNW 3.3 mph5.3 kmh 29.99 in1015.6 mb 0.00 in0.0 mm 0.00 in0.0 mm 0.02 in0.5 mm
12:36 AM 44.5°F6.9°C 47.9°F8.8°C 95% 3.2 mph NNW5.1 kmh NNW 3.3 mph5.3 kmh 30.00 in1015.9 mb 0.00 in0.0 mm 0.00 in0.0 mm 0.02 in0.5 mm
12:39 AM 44.8°F7.1°C 48.1°F8.9°C 95% 3.2 mph NNE5.1 kmh NNE 3.2 mph5.1 kmh 30.00 in1015.9 mb 0.00 in0.0 mm 0.00 in0.0 mm 0.02 in0.5 mm
12:42 AM 44.7°F7.1°C 47.8°F8.8°C 93% 2.8 mph NNW4.5 kmh NNW 2.9 mph4.7 kmh 30.00 in1015.9 mb 0.00 in0.0 mm 0.00 in0.0 mm 0.02 in0.5 mm
12:48 AM 44.9°F7.2°C 48.3°F9.1°C 95% 2.0 mph NW3.2 kmh NW 2.0 mph3.2 kmh 29.99 in1015.6 mb 0.00 in0.0 mm 0.00 in0.0 mm 0.02 in0.5 mm
12:51 AM 44.9°F7.2°C 48.6°F9.2°C 95% 2.4 mph WNW3.9 kmh WNW 2.4 mph3.9 kmh 29.99 in1015.6 mb 0.00 in0.0 mm 0.00 in0.0 mm 0.02 in0.5 mm
12:54 AM 45.2°F7.3°C 48.6°F9.2°C 95% 3.2 mph NNW5.1 kmh NNW 3.3 mph5.3 kmh 29.99 in1015.6 mb 0.00 in0.0 mm 0.00 in0.0 mm 0.02 in0.5 mm
12:57 AM 45.1°F7.3°C 48.5°F9.2°C 95% 0.4 mph NNW0.6 kmh NNW 0.4 mph0.6 kmh 29.99 in1015.6 mb 0.00 in0.0 mm 0.00 in0.0 mm 0.02 in0.5 mm
01:00 AM 45.2°F7.3°C 48.3°F9.1°C 93% Calm Calm -- 29.98 in1015.2 mb 0.00 in0.0 mm 0.00 in0.0 mm 0.02 in0.5 mm
01:03 AM 45.3°F7.4°C 48.6°F9.2°C 95% 1.2 mph NW1.9 kmh NW 1.2 mph1.9 kmh 29.98 in1015.2 mb 0.00 in0.0 mm 0.00 in0.0 mm 0.02 in0.5 mm
01:06 AM 45.5°F7.5°C 48.9°F9.4°C 95% Calm Calm -- 29.98 in1015.2 mb 0.00 in0.0 mm 0.00 in0.0 mm 0.02 in0.5 mm
01:09 AM 45.5°F7.5°C 48.9°F9.4°C 94% Calm Calm -- 29.98 in1015.2 mb 0.00 in0.0 mm 0.00 in0.0 mm 0.02 in0.5 mm
01:12 AM 45.6°F7.6°C 48.9°F9.4°C 95% Calm Calm -- 29.98 in1015.2 mb 0.00 in0.0 mm 0.00 in0.0 mm 0.02 in0.5 mm
01:15 AM 45.6°F7.6°C 48.8°F9.3°C 93% 0.4 mph NNW0.6 kmh NNW 0.4 mph0.6 kmh 29.98 in1015.2 mb 0.00 in0.0 mm 0.00 in0.0 mm 0.02 in0.5 mm
01:18 AM 45.8°F7.7°C 49.1°F9.5°C 95% Calm Calm -- 29.99 in1015.6 mb 0.00 in0.0 mm 0.00 in0.0 mm 0.02 in0.5 mm
01:21 AM 45.8°F7.7°C 48.6°F9.2°C 93% 1.6 mph 2.6 kmh 1.6 mph2.6 kmh 29.97 in1014.9 mb 0.00 in0.0 mm 0.00 in0.0 mm 0.02 in0.5 mm
01:24 AM 45.7°F7.6°C 49.1°F9.5°C 95% 0.8 mph NW1.3 kmh NW 0.8 mph1.3 kmh 29.98 in1015.2 mb 0.00 in0.0 mm 0.00 in0.0 mm 0.02 in0.5 mm
01:27 AM 45.7°F7.6°C 49.1°F9.5°C 95% Calm Calm -- 29.97 in1014.9 mb 0.00 in0.0 mm 0.00 in0.0 mm 0.02 in0.5 mm
01:30 AM 46.0°F7.8°C 49.2°F9.6°C 95% 0.4 mph NNW0.6 kmh NNW 0.4 mph0.6 kmh 29.97 in1014.9 mb 0.00 in0.0 mm 0.00 in0.0 mm 0.02 in0.5 mm
01:33 AM 46.2°F7.9°C 49.4°F9.7°C 95% 2.4 mph WNW3.9 kmh WNW 2.4 mph3.9 kmh 29.97 in1014.9 mb 0.00 in0.0 mm 0.00 in0.0 mm 0.02 in0.5 mm
01:36 AM 46.1°F7.8°C 49.7°F9.8°C 95% 0.8 mph WNW1.3 kmh WNW 0.8 mph1.3 kmh 29.97 in1014.9 mb 0.00 in0.0 mm 0.00 in0.0 mm 0.02 in0.5 mm
01:39 AM 46.2°F7.9°C 49.8°F9.9°C 95% 0.8 mph W1.3 kmh W 0.8 mph1.3 kmh 29.97 in1014.9 mb 0.00 in0.0 mm 0.00 in0.0 mm 0.02 in0.5 mm
01:42 AM 46.3°F7.9°C 49.9°F9.9°C 95% 0.4 mph NW0.6 kmh NW 0.4 mph0.6 kmh 29.97 in1014.9 mb 0.00 in0.0 mm 0.00 in0.0 mm 0.02 in0.5 mm
01:45 AM 46.6°F8.1°C 49.8°F9.9°C 95% Calm Calm -- 29.97 in1014.9 mb 0.00 in0.0 mm 0.00 in0.0 mm 0.02 in0.5 mm
01:48 AM 46.9°F8.3°C 50.1°F10.1°C 95% Calm Calm -- 29.97 in1014.9 mb 0.00 in0.0 mm 0.00 in0.0 mm 0.02 in0.5 mm
01:51 AM 46.6°F8.1°C 50.1°F10.1°C 95% 2.8 mph WNW4.5 kmh WNW 2.9 mph4.7 kmh 29.97 in1014.9 mb 0.00 in0.0 mm 0.00 in0.0 mm 0.02 in0.5 mm
01:54 AM 46.7°F8.2°C 50.2°F10.1°C 95% 0.8 mph WNW1.3 kmh WNW 0.8 mph1.3 kmh 29.97 in1014.9 mb 0.00 in0.0 mm 0.00 in0.0 mm 0.02 in0.5 mm
01:57 AM 47.0°F8.3°C 50.5°F10.3°C 96% 1.6 mph SW2.6 kmh SW 1.6 mph2.6 kmh 29.97 in1014.9 mb 0.00 in0.0 mm 0.00 in0.0 mm 0.02 in0.5 mm
02:00 AM 47.1°F8.4°C 50.6°F10.3°C 96% 2.8 mph NNW4.5 kmh NNW 2.9 mph4.7 kmh 29.96 in1014.6 mb 0.00 in0.0 mm 0.00 in0.0 mm 0.02 in0.5 mm
02:03 AM 47.2°F8.4°C 50.9°F10.5°C 96% 3.2 mph W5.1 kmh W 3.3 mph5.3 kmh 29.97 in1014.9 mb 0.00 in0.0 mm 0.00 in0.0 mm 0.02 in0.5 mm
02:06 AM 47.5°F8.6°C 50.8°F10.4°C 95% 2.8 mph WNW4.5 kmh WNW 2.8 mph4.5 kmh 29.97 in1014.9 mb 0.00 in0.0 mm 0.00 in0.0 mm 0.02 in0.5 mm
02:09 AM 47.3°F8.5°C 51.3°F10.7°C 96% 2.8 mph W4.5 kmh W 2.8 mph4.5 kmh 29.96 in1014.6 mb 0.00 in0.0 mm 0.00 in0.0 mm 0.04 in1.0 mm
02:12 AM 47.4°F8.6°C 51.1°F10.6°C 96% 0.4 mph NNW0.6 kmh NNW 0.4 mph0.6 kmh 29.97 in1014.9 mb 0.00 in0.0 mm 0.00 in0.0 mm 0.04 in1.0 mm
02:15 AM 47.4°F8.6°C 50.9°F10.5°C 95% Calm Calm -- 29.97 in1014.9 mb 0.00 in0.0 mm 0.00 in0.0 mm 0.04 in1.0 mm
02:18 AM 47.4°F8.6°C 51.1°F10.6°C 95% 2.8 mph NNW4.5 kmh NNW 2.8 mph4.5 kmh 29.97 in1014.9 mb 0.00 in0.0 mm 0.00 in0.0 mm 0.04 in1.0 mm
02:21 AM 47.5°F8.6°C 51.2°F10.7°C 96% 3.2 mph W5.1 kmh W 3.3 mph5.3 kmh 29.97 in1014.9 mb 0.00 in0.0 mm 0.00 in0.0 mm 0.04 in1.0 mm
02:24 AM 47.5°F8.6°C 51.1°F10.6°C 95% 3.2 mph NW5.1 kmh NW 3.2 mph5.1 kmh 29.97 in1014.9 mb 0.00 in0.0 mm 0.00 in0.0 mm 0.04 in1.0 mm
02:27 AM 47.6°F8.7°C 51.3°F10.7°C 95% 2.0 mph WNW3.2 kmh WNW 2.0 mph3.2 kmh 29.97 in1014.9 mb 0.00 in0.0 mm 0.00 in0.0 mm 0.04 in1.0 mm
02:30 AM 47.6°F8.7°C 51.6°F10.9°C 96% 3.6 mph NW5.8 kmh NW 3.7 mph6.0 kmh 29.96 in1014.6 mb 0.00 in0.0 mm 0.00 in0.0 mm 0.04 in1.0 mm
02:33 AM 47.6°F8.7°C 51.5°F10.8°C 96% 3.6 mph NW5.8 kmh NW 3.7 mph6.0 kmh 29.96 in1014.6 mb 0.00 in0.0 mm 0.00 in0.0 mm 0.04 in1.0 mm
02:36 AM 47.6°F8.7°C 51.6°F10.9°C 96% 1.2 mph WNW1.9 kmh WNW 1.2 mph1.9 kmh 29.96 in1014.6 mb 0.00 in0.0 mm 0.00 in0.0 mm 0.04 in1.0 mm
02:39 AM 47.6°F8.7°C 51.6°F10.9°C 95% 2.8 mph NNW4.5 kmh NNW 2.8 mph4.5 kmh 29.96 in1014.6 mb 0.00 in0.0 mm 0.00 in0.0 mm 0.04 in1.0 mm
02:42 AM 47.6°F8.7°C 51.5°F10.8°C 95% 3.6 mph WNW5.8 kmh WNW 3.7 mph6.0 kmh 29.96 in1014.6 mb 0.00 in0.0 mm 0.00 in0.0 mm 0.04 in1.0 mm
02:45 AM 47.8°F8.8°C 51.6°F10.9°C 96% 2.0 mph NNW3.2 kmh NNW 2.0 mph3.2 kmh 29.96 in1014.6 mb 0.00 in0.0 mm 0.00 in0.0 mm 0.04 in1.0 mm
02:48 AM 47.8°F8.8°C 51.3°F10.7°C 94% Calm Calm -- 29.96 in1014.6 mb 0.00 in0.0 mm 0.00 in0.0 mm 0.04 in1.0 mm
02:51 AM 47.8°F8.8°C 51.7°F10.9°C 95% 3.2 mph W5.1 kmh W 3.3 mph5.3 kmh 29.96 in1014.6 mb 0.00 in0.0 mm 0.00 in0.0 mm 0.04 in1.0 mm
02:54 AM 47.6°F8.7°C 51.7°F10.9°C 95% 4.0 mph WNW6.4 kmh WNW 4.1 mph6.6 kmh 29.96 in1014.6 mb 0.00 in0.0 mm 0.00 in0.0 mm 0.04 in1.0 mm
02:57 AM 47.8°F8.8°C 51.7°F10.9°C 95% 4.8 mph WNW7.7 kmh WNW 4.9 mph7.9 kmh 29.95 in1014.2 mb 0.00 in0.0 mm 0.00 in0.0 mm 0.04 in1.0 mm
03:00 AM 47.8°F8.8°C 51.6°F10.9°C 95% 0.8 mph W1.3 kmh W 0.8 mph1.3 kmh 29.95 in1014.2 mb 0.00 in0.0 mm 0.00 in0.0 mm 0.04 in1.0 mm
03:03 AM 47.8°F8.8°C 51.7°F10.9°C 95% 4.0 mph WNW6.4 kmh WNW 4.0 mph6.4 kmh 29.95 in1014.2 mb 0.00 in0.0 mm 0.00 in0.0 mm 0.04 in1.0 mm
03:06 AM 48.0°F8.9°C 51.9°F11.1°C 95% 1.6 mph NW2.6 kmh NW 1.6 mph2.6 kmh 29.95 in1014.2 mb 0.00 in0.0 mm 0.00 in0.0 mm 0.04 in1.0 mm
03:09 AM 47.9°F8.8°C 51.7°F10.9°C 95% 2.4 mph NW3.9 kmh NW 2.4 mph3.9 kmh 29.95 in1014.2 mb 0.00 in0.0 mm 0.00 in0.0 mm 0.04 in1.0 mm
03:12 AM 47.9°F8.8°C 51.5°F10.8°C 94% 2.8 mph W4.5 kmh W 2.8 mph4.5 kmh 29.95 in1014.2 mb 0.00 in0.0 mm 0.00 in0.0 mm 0.04 in1.0 mm
03:15 AM 48.0°F8.9°C 51.9°F11.1°C 96% 1.2 mph NW1.9 kmh NW 1.2 mph1.9 kmh 29.94 in1013.9 mb 0.00 in0.0 mm 0.00 in0.0 mm 0.04 in1.0 mm
03:18 AM 48.0°F8.9°C 51.9°F11.1°C 95% 3.2 mph NW5.1 kmh NW 3.2 mph5.1 kmh 29.94 in1013.9 mb 0.00 in0.0 mm 0.00 in0.0 mm 0.04 in1.0 mm
03:21 AM 48.0°F8.9°C 52.2°F11.2°C 96% 2.0 mph NNW3.2 kmh NNW 2.0 mph3.2 kmh 29.94 in1013.9 mb 0.00 in0.0 mm 0.00 in0.0 mm 0.04 in1.0 mm
03:24 AM 48.0°F8.9°C 51.4°F10.8°C 93% Calm Calm -- 29.94 in1013.9 mb 0.00 in0.0 mm 0.00 in0.0 mm 0.04 in1.0 mm
03:27 AM 48.0°F8.9°C 52.1°F11.2°C 95% 2.4 mph NNW3.9 kmh NNW 2.4 mph3.9 kmh 29.94 in1013.9 mb 0.00 in0.0 mm 0.00 in0.0 mm 0.04 in1.0 mm
03:30 AM 48.0°F8.9°C 52.0°F11.1°C 95% 0.4 mph WNW0.6 kmh WNW 0.4 mph0.6 kmh 29.94 in1013.9 mb 0.00 in0.0 mm 0.00 in0.0 mm 0.04 in1.0 mm
03:33 AM 47.9°F8.8°C 51.9°F11.1°C 94% Calm Calm -- 29.94 in1013.9 mb 0.00 in0.0 mm 0.00 in0.0 mm 0.04 in1.0 mm
03:36 AM 48.0°F8.9°C 51.8°F11.0°C 94% 4.4 mph NNW7.1 kmh NNW 4.5 mph7.2 kmh 29.94 in1013.9 mb 0.00 in0.0 mm 0.00 in0.0 mm 0.04 in1.0 mm
03:39 AM 48.0°F8.9°C 52.1°F11.2°C 95% 3.2 mph NNW5.1 kmh NNW 3.3 mph5.3 kmh 29.94 in1013.9 mb 0.00 in0.0 mm 0.00 in0.0 mm 0.04 in1.0 mm
03:42 AM 48.1°F8.9°C 51.9°F11.1°C 95% 1.2 mph NW1.9 kmh NW 1.2 mph1.9 kmh 29.94 in1013.9 mb 0.00 in0.0 mm 0.00 in0.0 mm 0.04 in1.0 mm
03:45 AM 48.1°F8.9°C 52.1°F11.2°C 94% 4.0 mph NW6.4 kmh NW 4.0 mph6.4 kmh 29.94 in1013.9 mb 0.00 in0.0 mm 0.00 in0.0 mm 0.04 in1.0 mm
03:48 AM 48.1°F8.9°C 52.0°F11.1°C 95% 2.8 mph NNW4.5 kmh NNW 2.9 mph4.7 kmh 29.94 in1013.9 mb 0.00 in0.0 mm 0.00 in0.0 mm 0.04 in1.0 mm
03:51 AM 48.2°F9.0°C 52.1°F11.2°C 95% 0.8 mph W1.3 kmh W 0.8 mph1.3 kmh 29.94 in1013.9 mb 0.00 in0.0 mm 0.00 in0.0 mm 0.04 in1.0 mm
03:54 AM 48.2°F9.0°C 52.0°F11.1°C 94% 0.4 mph SSW0.6 kmh SSW 0.4 mph0.6 kmh 29.94 in1013.9 mb 0.00 in0.0 mm 0.00 in0.0 mm 0.04 in1.0 mm
03:57 AM 48.2°F9.0°C 52.3°F11.3°C 95% 4.0 mph SW6.4 kmh SW 4.1 mph6.6 kmh 29.93 in1013.5 mb 0.00 in0.0 mm 0.00 in0.0 mm 0.04 in1.0 mm
04:00 AM 48.2°F9.0°C 52.0°F11.1°C 94% 0.8 mph WSW1.3 kmh WSW 0.8 mph1.3 kmh 29.93 in1013.5 mb 0.00 in0.0 mm 0.00 in0.0 mm 0.04 in1.0 mm
04:03 AM 48.2°F9.0°C 52.3°F11.3°C 94% 4.0 mph W6.4 kmh W 4.0 mph6.4 kmh 29.93 in1013.5 mb 0.00 in0.0 mm 0.00 in0.0 mm 0.04 in1.0 mm
04:06 AM 48.3°F9.1°C 52.1°F11.2°C 94% 5.6 mph WNW9.0 kmh WNW 5.6 mph9.0 kmh 29.93 in1013.5 mb 0.00 in0.0 mm 0.00 in0.0 mm 0.04 in1.0 mm
04:09 AM 48.3°F9.1°C 52.3°F11.3°C 95% 2.8 mph W4.5 kmh W 2.9 mph4.7 kmh 29.93 in1013.5 mb 0.00 in0.0 mm 0.00 in0.0 mm 0.04 in1.0 mm
04:12 AM 48.3°F9.1°C 52.3°F11.3°C 95% 1.2 mph NW1.9 kmh NW 1.2 mph1.9 kmh 29.93 in1013.5 mb 0.00 in0.0 mm 0.00 in0.0 mm 0.04 in1.0 mm
04:15 AM 48.3°F9.1°C 52.2°F11.2°C 94% 3.2 mph W5.1 kmh W 3.3 mph5.3 kmh 29.93 in1013.5 mb 0.00 in0.0 mm 0.00 in0.0 mm 0.04 in1.0 mm
04:18 AM 48.3°F9.1°C 52.2°F11.2°C 94% 4.8 mph WSW7.7 kmh WSW 4.8 mph7.7 kmh 29.93 in1013.5 mb 0.00 in0.0 mm 0.00 in0.0 mm 0.04 in1.0 mm
04:21 AM 48.3°F9.1°C 52.5°F11.4°C 94% 3.6 mph WSW5.8 kmh WSW 3.6 mph5.8 kmh 29.93 in1013.5 mb 0.00 in0.0 mm 0.00 in0.0 mm 0.04 in1.0 mm
04:24 AM 48.2°F9.0°C 52.1°F11.2°C 94% 2.4 mph SW3.9 kmh SW 2.4 mph3.9 kmh 29.92 in1013.2 mb 0.00 in0.0 mm 0.00 in0.0 mm 0.04 in1.0 mm
04:27 AM 48.3°F9.1°C 52.5°F11.4°C 94% 2.0 mph WSW3.2 kmh WSW 2.0 mph3.2 kmh 29.92 in1013.2 mb 0.00 in0.0 mm 0.00 in0.0 mm 0.04 in1.0 mm
04:30 AM 48.3°F9.1°C 52.3°F11.3°C 94% 4.0 mph NW6.4 kmh NW 4.0 mph6.4 kmh 29.92 in1013.2 mb 0.00 in0.0 mm 0.00 in0.0 mm 0.04 in1.0 mm
04:33 AM 48.2°F9.0°C 52.2°F11.2°C 94% 6.5 mph WSW10.5 kmh WSW 6.5 mph10.5 kmh 29.93 in1013.5 mb 0.00 in0.0 mm 0.00 in0.0 mm 0.04 in1.0 mm
04:36 AM 48.3°F9.1°C 52.6°F11.4°C 94% 0.8 mph WSW1.3 kmh WSW 0.8 mph1.3 kmh 29.92 in1013.2 mb 0.00 in0.0 mm 0.00 in0.0 mm 0.04 in1.0 mm
04:39 AM 48.3°F9.1°C 52.1°F11.2°C 93% 1.2 mph W1.9 kmh W 1.2 mph1.9 kmh 29.92 in1013.2 mb 0.00 in0.0 mm 0.00 in0.0 mm 0.04 in1.0 mm
04:42 AM 48.3°F9.1°C 52.4°F11.3°C 94% 3.2 mph SW5.1 kmh SW 3.3 mph5.3 kmh 29.92 in1013.2 mb 0.00 in0.0 mm 0.00 in0.0 mm 0.04 in1.0 mm
04:45 AM 48.3°F9.1°C 52.5°F11.4°C 94% 1.6 mph NNW2.6 kmh NNW 1.6 mph2.6 kmh 29.92 in1013.2 mb 0.00 in0.0 mm 0.00 in0.0 mm 0.04 in1.0 mm
04:48 AM 48.3°F9.1°C 52.2°F11.2°C 94% 5.3 mph NNW8.5 kmh NNW 5.3 mph8.5 kmh 29.92 in1013.2 mb 0.00 in0.0 mm 0.00 in0.0 mm 0.04 in1.0 mm
04:51 AM 48.3°F9.1°C 52.5°F11.4°C 94% 1.6 mph WSW2.6 kmh WSW 1.6 mph2.6 kmh 29.92 in1013.2 mb 0.00 in0.0 mm 0.00 in0.0 mm 0.04 in1.0 mm
04:54 AM 48.3°F9.1°C 52.4°F11.3°C 94% 0.4 mph NW0.6 kmh NW 0.4 mph0.6 kmh 29.91 in1012.9 mb 0.00 in0.0 mm 0.00 in0.0 mm 0.04 in1.0 mm
04:57 AM 48.3°F9.1°C 52.4°F11.3°C 94% 4.8 mph W7.7 kmh W 4.9 mph7.9 kmh 29.92 in1013.2 mb 0.00 in0.0 mm 0.00 in0.0 mm 0.04 in1.0 mm
05:00 AM 48.3°F9.1°C 52.5°F11.4°C 94% 1.6 mph W2.6 kmh W 1.6 mph2.6 kmh 29.92 in1013.2 mb 0.00 in0.0 mm 0.00 in0.0 mm 0.04 in1.0 mm
05:03 AM 48.3°F9.1°C 52.6°F11.4°C 94% 2.8 mph WSW4.5 kmh WSW 2.8 mph4.5 kmh 29.91 in1012.9 mb 0.00 in0.0 mm 0.00 in0.0 mm 0.04 in1.0 mm
05:06 AM 48.3°F9.1°C 52.6°F11.4°C 94% 1.6 mph W2.6 kmh W 1.6 mph2.6 kmh 29.91 in1012.9 mb 0.00 in0.0 mm 0.00 in0.0 mm 0.04 in1.0 mm
05:09 AM 48.4°F9.1°C 52.4°F11.3°C 94% 3.2 mph NNW5.1 kmh NNW 3.3 mph5.3 kmh 29.91 in1012.9 mb 0.00 in0.0 mm 0.00 in0.0 mm 0.04 in1.0 mm
05:12 AM 48.3°F9.1°C 52.4°F11.3°C 94% 4.8 mph WSW7.7 kmh WSW 4.9 mph7.9 kmh 29.91 in1012.9 mb 0.00 in0.0 mm 0.00 in0.0 mm 0.04 in1.0 mm
05:15 AM 48.4°F9.1°C 52.6°F11.4°C 94% 6.1 mph SW9.8 kmh SW 6.1 mph9.8 kmh 29.90 in1012.5 mb 0.00 in0.0 mm 0.00 in0.0 mm 0.04 in1.0 mm
05:18 AM 48.3°F9.1°C 52.5°F11.4°C 94% 1.2 mph W1.9 kmh W 1.2 mph1.9 kmh 29.91 in1012.9 mb 0.00 in0.0 mm 0.00 in0.0 mm 0.04 in1.0 mm
05:21 AM 48.4°F9.1°C 52.4°F11.3°C 94% 2.4 mph NNW3.9 kmh NNW 2.4 mph3.9 kmh 29.91 in1012.9 mb 0.00 in0.0 mm 0.00 in0.0 mm 0.04 in1.0 mm
05:24 AM 48.3°F9.1°C 52.5°F11.4°C 94% 2.4 mph W3.9 kmh W 2.4 mph3.9 kmh 29.90 in1012.5 mb 0.00 in0.0 mm 0.00 in0.0 mm 0.04 in1.0 mm
05:27 AM 48.4°F9.1°C 52.6°F11.4°C 94% 6.1 mph WNW9.8 kmh WNW 6.1 mph9.8 kmh 29.91 in1012.9 mb 0.00 in0.0 mm 0.00 in0.0 mm 0.04 in1.0 mm
05:33 AM 48.4°F9.1°C 52.6°F11.4°C 94% 4.9 mph WSW7.9 kmh WSW 4.9 mph7.9 kmh 29.90 in1012.5 mb 0.00 in0.0 mm 0.00 in0.0 mm 0.04 in1.0 mm
05:39 AM 48.5°F9.2°C 52.1°F11.2°C 92% 5.7 mph WNW9.2 kmh WNW 5.7 mph9.2 kmh 29.90 in1012.5 mb 0.00 in0.0 mm 0.00 in0.0 mm 0.04 in1.0 mm
05:42 AM 48.5°F9.2°C 52.7°F11.5°C 94% 8.5 mph NW13.7 kmh NW 8.5 mph13.7 kmh 29.90 in1012.5 mb 0.00 in0.0 mm 0.00 in0.0 mm 0.04 in1.0 mm
05:45 AM 48.7°F9.3°C 52.5°F11.4°C 93% 1.6 mph W2.6 kmh W 1.6 mph2.6 kmh 29.90 in1012.5 mb 0.00 in0.0 mm 0.00 in0.0 mm 0.04 in1.0 mm
05:48 AM 48.5°F9.2°C 52.8°F11.6°C 94% 2.8 mph WSW4.5 kmh WSW 2.9 mph4.7 kmh 29.90 in1012.5 mb 0.00 in0.0 mm 0.00 in0.0 mm 0.04 in1.0 mm
05:54 AM 48.5°F9.2°C 52.6°F11.4°C 94% 8.0 mph W12.9 kmh W 8.0 mph12.9 kmh 29.90 in1012.5 mb 0.00 in0.0 mm 0.00 in0.0 mm 0.04 in1.0 mm
05:57 AM 48.5°F9.2°C 52.8°F11.6°C 94% 2.8 mph W4.5 kmh W 2.9 mph4.7 kmh 29.90 in1012.5 mb 0.00 in0.0 mm 0.00 in0.0 mm 0.04 in1.0 mm
06:00 AM 48.5°F9.2°C 52.7°F11.5°C 94% 4.8 mph W7.7 kmh W 4.9 mph7.9 kmh 29.89 in1012.2 mb 0.00 in0.0 mm 0.00 in0.0 mm 0.04 in1.0 mm
06:03 AM 48.5°F9.2°C 52.8°F11.6°C 94% 2.0 mph NNW3.2 kmh NNW 2.0 mph3.2 kmh 29.89 in1012.2 mb 0.00 in0.0 mm 0.00 in0.0 mm 0.04 in1.0 mm
06:06 AM 48.5°F9.2°C 52.7°F11.5°C 94% 5.3 mph W8.5 kmh W 5.3 mph8.5 kmh 29.90 in1012.5 mb 0.00 in0.0 mm 0.00 in0.0 mm 0.04 in1.0 mm
06:09 AM 48.5°F9.2°C 52.5°F11.4°C 94% 5.3 mph WNW8.5 kmh WNW 5.3 mph8.5 kmh 29.89 in1012.2 mb 0.00 in0.0 mm 0.00 in0.0 mm 0.04 in1.0 mm
06:15 AM 48.5°F9.2°C 52.4°F11.3°C 93% 4.9 mph NW7.9 kmh NW 4.9 mph7.9 kmh 29.89 in1012.2 mb 0.00 in0.0 mm 0.00 in0.0 mm 0.04 in1.0 mm
06:18 AM 48.5°F9.2°C 52.5°F11.4°C 93% 4.8 mph SW7.7 kmh SW 4.8 mph7.7 kmh 29.88 in1011.9 mb 0.00 in0.0 mm 0.00 in0.0 mm 0.04 in1.0 mm
06:21 AM 48.7°F9.3°C 52.7°F11.5°C 94% 5.8 mph NW9.3 kmh NW 5.8 mph9.3 kmh 29.88 in1011.9 mb 0.00 in0.0 mm 0.00 in0.0 mm 0.04 in1.0 mm
06:24 AM 48.8°F9.3°C 52.8°F11.6°C 94% 4.9 mph W7.9 kmh W 4.9 mph7.9 kmh 29.88 in1011.9 mb 0.00 in0.0 mm 0.00 in0.0 mm 0.04 in1.0 mm
06:27 AM 48.8°F9.3°C 52.7°F11.5°C 93% 5.6 mph W9.0 kmh W 5.6 mph9.0 kmh 29.88 in1011.9 mb 0.00 in0.0 mm 0.00 in0.0 mm 0.04 in1.0 mm
06:30 AM 48.7°F9.3°C 52.9°F11.6°C 94% 2.8 mph WNW4.5 kmh WNW 2.8 mph4.5 kmh 29.88 in1011.9 mb 0.00 in0.0 mm 0.00 in0.0 mm 0.04 in1.0 mm
06:33 AM 48.7°F9.3°C 52.9°F11.6°C 93% 0.4 mph WSW0.6 kmh WSW 0.4 mph0.6 kmh 29.88 in1011.9 mb 0.00 in0.0 mm 0.00 in0.0 mm 0.04 in1.0 mm
06:36 AM 48.7°F9.3°C 52.8°F11.6°C 94% 5.2 mph NNW8.4 kmh NNW 5.2 mph8.4 kmh 29.88 in1011.9 mb 0.00 in0.0 mm 0.00 in0.0 mm 0.04 in1.0 mm
06:39 AM 48.7°F9.3°C 52.7°F11.5°C 94% 4.4 mph W7.1 kmh W 4.4 mph7.1 kmh 29.88 in1011.9 mb 0.00 in0.0 mm 0.00 in0.0 mm 0.04 in1.0 mm
06:42 AM 48.8°F9.3°C 53.0°F11.7°C 94% 2.8 mph W4.5 kmh W 2.8 mph4.5 kmh 29.88 in1011.9 mb 0.00 in0.0 mm 0.00 in0.0 mm 0.04 in1.0 mm
06:45 AM 48.7°F9.3°C 52.5°F11.4°C 93% 5.2 mph WNW8.4 kmh WNW 5.3 mph8.5 kmh 29.88 in1011.9 mb 0.00 in0.0 mm 0.00 in0.0 mm 0.04 in1.0 mm
06:48 AM 48.8°F9.3°C 53.0°F11.7°C 94% 7.2 mph W11.6 kmh W 7.2 mph11.6 kmh 29.88 in1011.9 mb 0.00 in0.0 mm 0.00 in0.0 mm 0.04 in1.0 mm
06:51 AM 48.9°F9.4°C 53.0°F11.7°C 94% 2.8 mph W4.5 kmh W 2.9 mph4.7 kmh 29.88 in1011.9 mb 0.00 in0.0 mm 0.00 in0.0 mm 0.04 in1.0 mm
06:54 AM 48.8°F9.3°C 52.8°F11.6°C 94% 3.2 mph W5.1 kmh W 3.3 mph5.3 kmh 29.88 in1011.9 mb 0.00 in0.0 mm 0.00 in0.0 mm 0.04 in1.0 mm
06:57 AM 48.8°F9.3°C 52.6°F11.4°C 93% 6.0 mph WNW9.7 kmh WNW 6.0 mph9.7 kmh 29.88 in1011.9 mb 0.00 in0.0 mm 0.00 in0.0 mm 0.04 in1.0 mm
07:00 AM 48.8°F9.3°C 52.9°F11.6°C 94% 4.0 mph W6.4 kmh W 4.1 mph6.6 kmh 29.88 in1011.9 mb 0.00 in0.0 mm 0.00 in0.0 mm 0.04 in1.0 mm
07:03 AM 48.8°F9.3°C 52.7°F11.5°C 93% 4.8 mph W7.7 kmh W 4.9 mph7.9 kmh 29.88 in1011.9 mb 0.00 in0.0 mm 0.00 in0.0 mm 0.04 in1.0 mm
07:06 AM 48.9°F9.4°C 52.7°F11.5°C 93% 3.2 mph NNW5.1 kmh NNW 3.3 mph5.3 kmh 29.88 in1011.9 mb 0.00 in0.0 mm 0.00 in0.0 mm 0.04 in1.0 mm
07:09 AM 48.9°F9.4°C 52.9°F11.6°C 94% 3.2 mph W5.1 kmh W 3.2 mph5.1 kmh 29.88 in1011.9 mb 0.00 in0.0 mm 0.00 in0.0 mm 0.04 in1.0 mm
07:12 AM 48.8°F9.3°C 52.8°F11.6°C 94% 3.6 mph W5.8 kmh W 3.7 mph6.0 kmh 29.88 in1011.9 mb 0.00 in0.0 mm 0.00 in0.0 mm 0.04 in1.0 mm
07:15 AM 48.9°F9.4°C 52.7°F11.5°C 94% 8.9 mph NW14.3 kmh NW 9.0 mph14.5 kmh 29.88 in1011.9 mb 0.00 in0.0 mm 0.00 in0.0 mm 0.04 in1.0 mm
07:18 AM 48.9°F9.4°C 52.8°F11.6°C 94% 3.2 mph W5.1 kmh W 3.3 mph5.3 kmh 29.88 in1011.9 mb 0.00 in0.0 mm 0.00 in0.0 mm 0.04 in1.0 mm
07:21 AM 48.9°F9.4°C 53.0°F11.7°C 94% 4.4 mph WNW7.1 kmh WNW 4.5 mph7.2 kmh 29.88 in1011.9 mb 0.00 in0.0 mm 0.00 in0.0 mm 0.04 in1.0 mm
07:24 AM 48.9°F9.4°C 52.2°F11.2°C 92% 1.2 mph WNW1.9 kmh WNW 1.2 mph1.9 kmh 29.88 in1011.9 mb 0.00 in0.0 mm 0.00 in0.0 mm 0.04 in1.0 mm
07:27 AM 48.9°F9.4°C 52.9°F11.6°C 93% 3.6 mph W5.8 kmh W 3.6 mph5.8 kmh 29.88 in1011.9 mb 0.00 in0.0 mm 0.00 in0.0 mm 0.04 in1.0 mm
07:30 AM 48.9°F9.4°C 52.9°F11.6°C 94% 4.0 mph WNW6.4 kmh WNW 4.0 mph6.4 kmh 29.88 in1011.9 mb 0.00 in0.0 mm 0.00 in0.0 mm 0.04 in1.0 mm
07:33 AM 48.9°F9.4°C 52.8°F11.6°C 93% 5.7 mph W9.2 kmh W 5.7 mph9.2 kmh 29.88 in1011.9 mb 0.00 in0.0 mm 0.00 in0.0 mm 0.04 in1.0 mm
07:36 AM 48.9°F9.4°C 52.9°F11.6°C 94% Calm Calm -- 29.88 in1011.9 mb 0.00 in0.0 mm 0.00 in0.0 mm 0.04 in1.0 mm
07:39 AM 48.9°F9.4°C 53.2°F11.8°C 94% 5.3 mph W8.5 kmh W 5.3 mph8.5 kmh 29.88 in1011.9 mb 0.00 in0.0 mm 0.00 in0.0 mm 0.04 in1.0 mm
07:42 AM 48.9°F9.4°C 52.9°F11.6°C 94% 3.6 mph WSW5.8 kmh WSW 3.7 mph6.0 kmh 29.88 in1011.9 mb 0.00 in0.0 mm 0.00 in0.0 mm 0.04 in1.0 mm
07:45 AM 48.9°F9.4°C 52.9°F11.6°C 94% 1.2 mph WNW1.9 kmh WNW 1.2 mph1.9 kmh 29.88 in1011.9 mb 0.00 in0.0 mm 0.00 in0.0 mm 0.04 in1.0 mm
07:48 AM 48.9°F9.4°C 53.1°F11.7°C 94% 3.6 mph WNW5.8 kmh WNW 3.7 mph6.0 kmh 29.88 in1011.9 mb 0.00 in0.0 mm 0.00 in0.0 mm 0.04 in1.0 mm
07:51 AM 48.9°F9.4°C 53.1°F11.7°C 94% 2.8 mph WSW4.5 kmh WSW 2.9 mph4.7 kmh 29.88 in1011.9 mb 0.00 in0.0 mm 0.00 in0.0 mm 0.04 in1.0 mm
07:54 AM 48.8°F9.3°C 52.9°F11.6°C 94% 1.2 mph NNW1.9 kmh NNW 1.2 mph1.9 kmh 29.88 in1011.9 mb 0.00 in0.0 mm 0.00 in0.0 mm 0.04 in1.0 mm
07:57 AM 48.8°F9.3°C 52.8°F11.6°C 93% 2.8 mph W4.5 kmh W 2.8 mph4.5 kmh 29.88 in1011.9 mb 0.00 in0.0 mm 0.00 in0.0 mm 0.04 in1.0 mm
08:00 AM 48.8°F9.3°C 52.5°F11.4°C 92% 2.0 mph WNW3.2 kmh WNW 2.0 mph3.2 kmh 29.88 in1011.9 mb 0.00 in0.0 mm 0.00 in0.0 mm 0.04 in1.0 mm
08:03 AM 48.8°F9.3°C 52.9°F11.6°C 93% 3.2 mph WNW5.1 kmh WNW 3.2 mph5.1 kmh 29.88 in1011.9 mb 0.00 in0.0 mm 0.00 in0.0 mm 0.04 in1.0 mm
08:06 AM 48.8°F9.3°C 53.1°F11.7°C 94% 7.5 mph NW12.1 kmh NW 7.5 mph12.1 kmh 29.88 in1011.9 mb 0.00 in0.0 mm 0.00 in0.0 mm 0.04 in1.0 mm
08:09 AM 48.8°F9.3°C 53.1°F11.7°C 94% Calm Calm -- 29.88 in1011.9 mb 0.00 in0.0 mm 0.00 in0.0 mm 0.04 in1.0 mm
08:12 AM 48.7°F9.3°C 52.6°F11.4°C 92% 3.6 mph NNW5.8 kmh NNW 3.7 mph6.0 kmh 29.88 in1011.9 mb 0.00 in0.0 mm 0.00 in0.0 mm 0.04 in1.0 mm
08:15 AM 48.7°F9.3°C 52.9°F11.6°C 93% 3.2 mph NW5.1 kmh NW 3.2 mph5.1 kmh 29.88 in1011.9 mb 0.00 in0.0 mm 0.00 in0.0 mm 0.04 in1.0 mm
08:18 AM 48.8°F9.3°C 52.9°F11.6°C 93% 1.6 mph W2.6 kmh W 1.6 mph2.6 kmh 29.88 in1011.9 mb 0.00 in0.0 mm 0.00 in0.0 mm 0.04 in1.0 mm
08:21 AM 48.8°F9.3°C 53.1°F11.7°C 94% 3.6 mph WNW5.8 kmh WNW 3.6 mph5.8 kmh 29.88 in1011.9 mb 0.00 in0.0 mm 0.00 in0.0 mm 0.04 in1.0 mm
08:24 AM 48.8°F9.3°C 53.1°F11.7°C 94% 2.4 mph WSW3.9 kmh WSW 2.4 mph3.9 kmh 29.88 in1011.9 mb 0.00 in0.0 mm 0.00 in0.0 mm 0.06 in1.5 mm
08:27 AM 48.7°F9.3°C 53.2°F11.8°C 94% 2.0 mph W3.2 kmh W 2.0 mph3.2 kmh 29.88 in1011.9 mb 0.00 in0.0 mm 0.00 in0.0 mm 0.06 in1.5 mm
08:30 AM 48.7°F9.3°C 53.1°F11.7°C 94% 3.2 mph W5.1 kmh W 3.3 mph5.3 kmh 29.88 in1011.9 mb 0.00 in0.0 mm 0.00 in0.0 mm 0.06 in1.5 mm
08:33 AM 48.7°F9.3°C 53.1°F11.7°C 94% 3.6 mph W5.8 kmh W 3.6 mph5.8 kmh 29.88 in1011.9 mb 0.00 in0.0 mm 0.00 in0.0 mm 0.06 in1.5 mm
08:36 AM 48.8°F9.3°C 52.8°F11.6°C 93% 6.0 mph WNW9.7 kmh WNW 6.0 mph9.7 kmh 29.87 in1011.5 mb 0.00 in0.0 mm 0.00 in0.0 mm 0.06 in1.5 mm
08:39 AM 48.8°F9.3°C 52.6°F11.4°C 92% 1.9 mph WNW3.1 kmh WNW 2.0 mph3.2 kmh 29.87 in1011.5 mb 0.00 in0.0 mm 0.00 in0.0 mm 0.06 in1.5 mm
08:42 AM 48.7°F9.3°C 52.8°F11.6°C 93% 0.8 mph NW1.3 kmh NW 0.8 mph1.3 kmh 29.87 in1011.5 mb 0.00 in0.0 mm 0.00 in0.0 mm 0.06 in1.5 mm
08:45 AM 48.8°F9.3°C 52.7°F11.5°C 92% 3.6 mph WSW5.8 kmh WSW 3.7 mph6.0 kmh 29.87 in1011.5 mb 0.00 in0.0 mm 0.00 in0.0 mm 0.06 in1.5 mm
08:48 AM 48.9°F9.4°C 52.9°F11.6°C 93% 0.8 mph WNW1.3 kmh WNW 0.8 mph1.3 kmh 29.87 in1011.5 mb 0.00 in0.0 mm 0.00 in0.0 mm 0.06 in1.5 mm
08:51 AM 48.8°F9.3°C 53.2°F11.8°C 93% 3.2 mph WSW5.1 kmh WSW 3.2 mph5.1 kmh 29.87 in1011.5 mb 0.00 in0.0 mm 0.00 in0.0 mm 0.06 in1.5 mm
08:54 AM 48.8°F9.3°C 53.1°F11.7°C 93% 1.6 mph WNW2.6 kmh WNW 1.6 mph2.6 kmh 29.87 in1011.5 mb 0.00 in0.0 mm 0.00 in0.0 mm 0.06 in1.5 mm
08:57 AM 48.8°F9.3°C 53.0°F11.7°C 93% 3.2 mph NNW5.1 kmh NNW 3.2 mph5.1 kmh 29.87 in1011.5 mb 0.00 in0.0 mm 0.00 in0.0 mm 0.06 in1.5 mm
09:00 AM 48.9°F9.4°C 52.9°F11.6°C 93% 1.6 mph W2.6 kmh W 1.6 mph2.6 kmh 29.87 in1011.5 mb 0.00 in0.0 mm 0.00 in0.0 mm 0.06 in1.5 mm
09:03 AM 48.9°F9.4°C 53.2°F11.8°C 93% 3.2 mph NNW5.1 kmh NNW 3.3 mph5.3 kmh 29.87 in1011.5 mb 0.00 in0.0 mm 0.00 in0.0 mm 0.06 in1.5 mm
09:06 AM 48.9°F9.4°C 53.0°F11.7°C 93% 3.2 mph WSW5.1 kmh WSW 3.3 mph5.3 kmh 29.87 in1011.5 mb 0.00 in0.0 mm 0.00 in0.0 mm 0.06 in1.5 mm
09:09 AM 48.9°F9.4°C 53.0°F11.7°C 93% 4.8 mph NNW7.7 kmh NNW 4.8 mph7.7 kmh 29.87 in1011.5 mb 0.00 in0.0 mm 0.00 in0.0 mm 0.06 in1.5 mm
09:12 AM 48.9°F9.4°C 53.0°F11.7°C 93% 4.8 mph WNW7.7 kmh WNW 4.8 mph7.7 kmh 29.87 in1011.5 mb 0.00 in0.0 mm 0.00 in0.0 mm 0.06 in1.5 mm
09:15 AM 48.9°F9.4°C 52.9°F11.6°C 93% 5.7 mph W9.2 kmh W 5.7 mph9.2 kmh 29.87 in1011.5 mb 0.00 in0.0 mm 0.00 in0.0 mm 0.06 in1.5 mm
09:21 AM 48.9°F9.4°C 52.6°F11.4°C 92% 4.0 mph NNW6.4 kmh NNW 4.1 mph6.6 kmh 29.86 in1011.2 mb 0.00 in0.0 mm 0.00 in0.0 mm 0.06 in1.5 mm
09:24 AM 48.9°F9.4°C 53.1°F11.7°C 93% 2.0 mph W3.2 kmh W 2.0 mph3.2 kmh 29.87 in1011.5 mb 0.00 in0.0 mm 0.00 in0.0 mm 0.06 in1.5 mm
09:27 AM 48.8°F9.3°C 53.0°F11.7°C 93% 1.6 mph W2.6 kmh W 1.6 mph2.6 kmh 29.86 in1011.2 mb 0.00 in0.0 mm 0.00 in0.0 mm 0.06 in1.5 mm
09:30 AM 48.9°F9.4°C 53.0°F11.7°C 93% 5.6 mph WSW9.0 kmh WSW 5.6 mph9.0 kmh 29.86 in1011.2 mb 0.00 in0.0 mm 0.00 in0.0 mm 0.06 in1.5 mm
09:33 AM 48.8°F9.3°C 53.1°F11.7°C 93% 5.6 mph W9.0 kmh W 5.6 mph9.0 kmh 29.85 in1010.8 mb 0.00 in0.0 mm 0.00 in0.0 mm 0.06 in1.5 mm
09:36 AM 48.9°F9.4°C 53.1°F11.7°C 93% 2.4 mph SW3.9 kmh SW 2.4 mph3.9 kmh 29.85 in1010.8 mb 0.00 in0.0 mm 0.00 in0.0 mm 0.06 in1.5 mm
09:39 AM 48.8°F9.3°C 52.9°F11.6°C 93% 3.2 mph SSW5.1 kmh SSW 3.3 mph5.3 kmh 29.85 in1010.8 mb 0.00 in0.0 mm 0.00 in0.0 mm 0.06 in1.5 mm
09:42 AM 48.8°F9.3°C 53.1°F11.7°C 93% 4.0 mph W6.4 kmh W 4.1 mph6.6 kmh 29.85 in1010.8 mb 0.00 in0.0 mm 0.00 in0.0 mm 0.06 in1.5 mm
09:45 AM 48.8°F9.3°C 53.1°F11.7°C 93% 5.2 mph WNW8.4 kmh WNW 5.2 mph8.4 kmh 29.85 in1010.8 mb 0.00 in0.0 mm 0.00 in0.0 mm 0.06 in1.5 mm
09:48 AM 48.9°F9.4°C 52.9°F11.6°C 93% 0.4 mph SW0.6 kmh SW 0.4 mph0.6 kmh 29.84 in1010.5 mb 0.00 in0.0 mm 0.00 in0.0 mm 0.06 in1.5 mm
09:51 AM 48.9°F9.4°C 53.2°F11.8°C 93% 2.8 mph W4.5 kmh W 2.9 mph4.7 kmh 29.84 in1010.5 mb 0.00 in0.0 mm 0.00 in0.0 mm 0.06 in1.5 mm
09:54 AM 48.9°F9.4°C 53.1°F11.7°C 93% 6.7 mph WSW10.8 kmh WSW 6.8 mph10.9 kmh 29.84 in1010.5 mb 0.00 in0.0 mm 0.00 in0.0 mm 0.06 in1.5 mm
09:57 AM 48.9°F9.4°C 52.9°F11.6°C 93% 2.8 mph W4.5 kmh W 2.9 mph4.7 kmh 29.85 in1010.8 mb 0.00 in0.0 mm 0.00 in0.0 mm 0.06 in1.5 mm
10:00 AM 48.9°F9.4°C 52.9°F11.6°C 93% 2.4 mph WSW3.9 kmh WSW 2.4 mph3.9 kmh 29.84 in1010.5 mb 0.00 in0.0 mm 0.00 in0.0 mm 0.06 in1.5 mm
10:03 AM 48.9°F9.4°C 52.9°F11.6°C 93% 5.6 mph W9.0 kmh W 5.6 mph9.0 kmh 29.84 in1010.5 mb 0.00 in0.0 mm 0.00 in0.0 mm 0.06 in1.5 mm
10:06 AM 48.9°F9.4°C 53.1°F11.7°C 93% 0.4 mph NNW0.6 kmh NNW 0.4 mph0.6 kmh 29.84 in1010.5 mb 0.00 in0.0 mm 0.00 in0.0 mm 0.06 in1.5 mm
10:09 AM 48.9°F9.4°C 52.9°F11.6°C 93% 3.2 mph W5.1 kmh W 3.2 mph5.1 kmh 29.84 in1010.5 mb 0.00 in0.0 mm 0.00 in0.0 mm 0.06 in1.5 mm
10:12 AM 48.9°F9.4°C 53.1°F11.7°C 93% 1.6 mph W2.6 kmh W 1.6 mph2.6 kmh 29.84 in1010.5 mb 0.00 in0.0 mm 0.00 in0.0 mm 0.06 in1.5 mm
10:15 AM 48.9°F9.4°C 52.9°F11.6°C 93% 7.3 mph WSW11.7 kmh WSW 7.3 mph11.7 kmh 29.84 in1010.5 mb 0.00 in0.0 mm 0.00 in0.0 mm 0.06 in1.5 mm
10:18 AM 48.8°F9.3°C 53.2°F11.8°C 93% Calm Calm -- 29.84 in1010.5 mb 0.00 in0.0 mm 0.00 in0.0 mm 0.06 in1.5 mm
10:21 AM 48.8°F9.3°C 52.9°F11.6°C 93% 8.0 mph SW12.9 kmh SW 8.0 mph12.9 kmh 29.84 in1010.5 mb 0.00 in0.0 mm 0.00 in0.0 mm 0.06 in1.5 mm
10:24 AM 48.9°F9.4°C 52.8°F11.6°C 92% 4.8 mph NNW7.7 kmh NNW 4.9 mph7.9 kmh 29.84 in1010.5 mb 0.00 in0.0 mm 0.00 in0.0 mm 0.06 in1.5 mm
10:27 AM 48.9°F9.4°C 53.0°F11.7°C 92% 5.2 mph W8.4 kmh W 5.2 mph8.4 kmh 29.84 in1010.5 mb 0.00 in0.0 mm 0.00 in0.0 mm 0.06 in1.5 mm
10:30 AM 48.9°F9.4°C 53.0°F11.7°C 93% 1.6 mph NNW2.6 kmh NNW 1.6 mph2.6 kmh 29.83 in1010.2 mb 0.00 in0.0 mm 0.00 in0.0 mm 0.06 in1.5 mm
10:33 AM 48.9°F9.4°C 52.5°F11.4°C 91% 7.7 mph W12.4 kmh W 7.7 mph12.4 kmh 29.84 in1010.5 mb 0.00 in0.0 mm 0.00 in0.0 mm 0.06 in1.5 mm
10:36 AM 48.9°F9.4°C 52.5°F11.4°C 91% 5.3 mph W8.5 kmh W 5.3 mph8.5 kmh 29.83 in1010.2 mb 0.00 in0.0 mm 0.00 in0.0 mm 0.06 in1.5 mm
10:39 AM 48.8°F9.3°C 52.7°F11.5°C 92% 3.2 mph NNW5.1 kmh NNW 3.3 mph5.3 kmh 29.83 in1010.2 mb 0.00 in0.0 mm 0.00 in0.0 mm 0.06 in1.5 mm
10:42 AM 48.8°F9.3°C 52.7°F11.5°C 92% 4.4 mph NNW7.1 kmh NNW 4.5 mph7.2 kmh 29.83 in1010.2 mb 0.00 in0.0 mm 0.00 in0.0 mm 0.06 in1.5 mm
10:45 AM 48.8°F9.3°C 52.8°F11.6°C 92% 5.2 mph W8.4 kmh W 5.3 mph8.5 kmh 29.83 in1010.2 mb 0.00 in0.0 mm 0.00 in0.0 mm 0.06 in1.5 mm
10:48 AM 48.9°F9.4°C 52.4°F11.3°C 91% 3.2 mph WSW5.1 kmh WSW 3.2 mph5.1 kmh 29.82 in1009.8 mb 0.00 in0.0 mm 0.00 in0.0 mm 0.06 in1.5 mm
10:51 AM 48.9°F9.4°C 52.5°F11.4°C 91% 7.6 mph W12.2 kmh W 7.6 mph12.2 kmh 29.82 in1009.8 mb 0.00 in0.0 mm 0.00 in0.0 mm 0.06 in1.5 mm
10:54 AM 48.9°F9.4°C 52.6°F11.4°C 92% 4.8 mph NNW7.7 kmh NNW 4.8 mph7.7 kmh 29.82 in1009.8 mb 0.00 in0.0 mm 0.00 in0.0 mm 0.06 in1.5 mm
10:57 AM 48.9°F9.4°C 52.4°F11.3°C 91% 3.2 mph SW5.1 kmh SW 3.3 mph5.3 kmh 29.82 in1009.8 mb 0.00 in0.0 mm 0.00 in0.0 mm 0.06 in1.5 mm
11:00 AM 48.9°F9.4°C 52.6°F11.4°C 92% 4.4 mph W7.1 kmh W 4.5 mph7.2 kmh 29.82 in1009.8 mb 0.00 in0.0 mm 0.00 in0.0 mm 0.06 in1.5 mm
11:03 AM 48.8°F9.3°C 52.1°F11.2°C 90% 7.7 mph W12.4 kmh W 7.7 mph12.4 kmh 29.82 in1009.8 mb 0.00 in0.0 mm 0.00 in0.0 mm 0.06 in1.5 mm
11:06 AM 48.8°F9.3°C 52.5°F11.4°C 91% 4.0 mph NW6.4 kmh NW 4.1 mph6.6 kmh 29.82 in1009.8 mb 0.00 in0.0 mm 0.00 in0.0 mm 0.06 in1.5 mm
11:09 AM 48.9°F9.4°C 52.5°F11.4°C 91% 4.4 mph W7.1 kmh W 4.4 mph7.1 kmh 29.82 in1009.8 mb 0.00 in0.0 mm 0.00 in0.0 mm 0.06 in1.5 mm
11:12 AM 48.8°F9.3°C 52.7°F11.5°C 92% 3.2 mph W5.1 kmh W 3.2 mph5.1 kmh 29.81 in1009.5 mb 0.00 in0.0 mm 0.00 in0.0 mm 0.06 in1.5 mm
11:15 AM 48.8°F9.3°C 52.5°F11.4°C 91% 4.4 mph NNW7.1 kmh NNW 4.5 mph7.2 kmh 29.81 in1009.5 mb 0.00 in0.0 mm 0.00 in0.0 mm 0.06 in1.5 mm
11:18 AM 48.8°F9.3°C 52.5°F11.4°C 91% 4.8 mph W7.7 kmh W 4.8 mph7.7 kmh 29.81 in1009.5 mb 0.00 in0.0 mm 0.00 in0.0 mm 0.06 in1.5 mm
11:21 AM 48.9°F9.4°C 52.5°F11.4°C 91% 3.2 mph W5.1 kmh W 3.3 mph5.3 kmh 29.81 in1009.5 mb 0.00 in0.0 mm 0.00 in0.0 mm 0.06 in1.5 mm
11:24 AM 48.8°F9.3°C 52.6°F11.4°C 91% 3.6 mph WNW5.8 kmh WNW 3.7 mph6.0 kmh 29.81 in1009.5 mb 0.00 in0.0 mm 0.00 in0.0 mm 0.06 in1.5 mm
11:27 AM 48.9°F9.4°C 52.4°F11.3°C 91% 6.0 mph W9.7 kmh W 6.0 mph9.7 kmh 29.81 in1009.5 mb 0.00 in0.0 mm 0.00 in0.0 mm 0.08 in2.0 mm
11:30 AM 48.8°F9.3°C 52.2°F11.2°C 90% 3.6 mph W5.8 kmh W 3.7 mph6.0 kmh 29.81 in1009.5 mb 0.00 in0.0 mm 0.00 in0.0 mm 0.08 in2.0 mm
11:33 AM 48.9°F9.4°C 52.4°F11.3°C 91% 3.2 mph W5.1 kmh W 3.3 mph5.3 kmh 29.81 in1009.5 mb 0.00 in0.0 mm 0.00 in0.0 mm 0.08 in2.0 mm
11:36 AM 48.9°F9.4°C 51.8°F11.0°C 90% 2.0 mph WSW3.2 kmh WSW 2.0 mph3.2 kmh 29.81 in1009.5 mb 0.00 in0.0 mm 0.00 in0.0 mm 0.08 in2.0 mm
11:39 AM 48.9°F9.4°C 52.3°F11.3°C 91% 1.6 mph WSW2.6 kmh WSW 1.6 mph2.6 kmh 29.80 in1009.1 mb 0.00 in0.0 mm 0.00 in0.0 mm 0.08 in2.0 mm
11:42 AM 48.9°F9.4°C 52.3°F11.3°C 91% 2.4 mph W3.9 kmh W 2.5 mph4.0 kmh 29.80 in1009.1 mb 0.00 in0.0 mm 0.00 in0.0 mm 0.08 in2.0 mm
11:45 AM 48.9°F9.4°C 52.4°F11.3°C 91% 2.8 mph NNW4.5 kmh NNW 2.9 mph4.7 kmh 29.79 in1008.8 mb 0.00 in0.0 mm 0.00 in0.0 mm 0.08 in2.0 mm
11:48 AM 49.0°F9.4°C 52.4°F11.3°C 91% 2.4 mph W3.9 kmh W 2.4 mph3.9 kmh 29.79 in1008.8 mb 0.00 in0.0 mm 0.00 in0.0 mm 0.08 in2.0 mm
11:51 AM 49.1°F9.5°C 52.5°F11.4°C 91% 7.7 mph W12.4 kmh W 7.8 mph12.6 kmh 29.79 in1008.8 mb 0.00 in0.0 mm 0.00 in0.0 mm 0.08 in2.0 mm
11:54 AM 49.1°F9.5°C 52.2°F11.2°C 91% 4.0 mph W6.4 kmh W 4.0 mph6.4 kmh 29.79 in1008.8 mb 0.00 in0.0 mm 0.00 in0.0 mm 0.08 in2.0 mm
11:57 AM 49.0°F9.4°C 52.2°F11.2°C 90% 2.0 mph W3.2 kmh W 2.0 mph3.2 kmh 29.79 in1008.8 mb 0.00 in0.0 mm 0.00 in0.0 mm 0.08 in2.0 mm
12:00 PM 49.0°F9.4°C 52.3°F11.3°C 90% 3.2 mph NW5.1 kmh NW 3.3 mph5.3 kmh 29.79 in1008.8 mb 0.00 in0.0 mm 0.00 in0.0 mm 0.08 in2.0 mm
12:03 PM 49.0°F9.4°C 52.3°F11.3°C 90% 2.0 mph 3.2 kmh 2.0 mph3.2 kmh 29.79 in1008.8 mb 0.00 in0.0 mm 0.00 in0.0 mm 0.08 in2.0 mm
12:06 PM 48.9°F9.4°C 52.0°F11.1°C 90% 2.4 mph W3.9 kmh W 2.5 mph4.0 kmh 29.79 in1008.8 mb 0.00 in0.0 mm 0.00 in0.0 mm 0.08 in2.0 mm
12:09 PM 48.9°F9.4°C 51.8°F11.0°C 89% 1.2 mph NNW1.9 kmh NNW 1.2 mph1.9 kmh 29.79 in1008.8 mb 0.00 in0.0 mm 0.00 in0.0 mm 0.08 in2.0 mm
12:12 PM 48.8°F9.3°C 52.0°F11.1°C 90% 3.6 mph W5.8 kmh W 3.6 mph5.8 kmh 29.78 in1008.5 mb 0.00 in0.0 mm 0.00 in0.0 mm 0.08 in2.0 mm
12:15 PM 48.9°F9.4°C 52.3°F11.3°C 90% 4.0 mph W6.4 kmh W 4.1 mph6.6 kmh 29.77 in1008.1 mb 0.00 in0.0 mm 0.00 in0.0 mm 0.08 in2.0 mm
12:18 PM 48.9°F9.4°C 52.2°F11.2°C 90% 4.9 mph W7.9 kmh W 4.9 mph7.9 kmh 29.77 in1008.1 mb 0.00 in0.0 mm 0.00 in0.0 mm 0.08 in2.0 mm
12:21 PM 48.8°F9.3°C 52.1°F11.2°C 90% 0.4 mph NNW0.6 kmh NNW 0.4 mph0.6 kmh 29.77 in1008.1 mb 0.00 in0.0 mm 0.00 in0.0 mm 0.08 in2.0 mm
12:24 PM 48.7°F9.3°C 51.9°F11.1°C 90% 5.7 mph W9.2 kmh W 5.7 mph9.2 kmh 29.77 in1008.1 mb 0.00 in0.0 mm 0.00 in0.0 mm 0.08 in2.0 mm
12:27 PM 48.8°F9.3°C 52.0°F11.1°C 90% 2.8 mph NW4.5 kmh NW 2.9 mph4.7 kmh 29.77 in1008.1 mb 0.00 in0.0 mm 0.00 in0.0 mm 0.08 in2.0 mm
12:30 PM 48.9°F9.4°C 51.9°F11.1°C 89% 0.4 mph NNW0.6 kmh NNW 0.4 mph0.6 kmh 29.77 in1008.1 mb 0.00 in0.0 mm 0.00 in0.0 mm 0.08 in2.0 mm
12:33 PM 48.8°F9.3°C 51.6°F10.9°C 89% 2.8 mph W4.5 kmh W 2.9 mph4.7 kmh 29.77 in1008.1 mb 0.00 in0.0 mm 0.00 in0.0 mm 0.08 in2.0 mm
12:36 PM 48.9°F9.4°C 52.0°F11.1°C 90% 4.0 mph NNW6.4 kmh NNW 4.1 mph6.6 kmh 29.77 in1008.1 mb 0.00 in0.0 mm 0.00 in0.0 mm 0.08 in2.0 mm
12:39 PM 49.0°F9.4°C 51.9°F11.1°C 89% 2.4 mph NNW3.9 kmh NNW 2.4 mph3.9 kmh 29.77 in1008.1 mb 0.00 in0.0 mm 0.00 in0.0 mm 0.08 in2.0 mm
12:42 PM 49.1°F9.5°C 52.1°F11.2°C 90% Calm Calm -- 29.76 in1007.8 mb 0.00 in0.0 mm 0.00 in0.0 mm 0.08 in2.0 mm
12:45 PM 49.2°F9.6°C 52.3°F11.3°C 90% Calm Calm -- 29.76 in1007.8 mb 0.00 in0.0 mm 0.00 in0.0 mm 0.08 in2.0 mm
12:48 PM 49.1°F9.5°C 52.2°F11.2°C 89% 4.0 mph W6.4 kmh W 4.1 mph6.6 kmh 29.76 in1007.8 mb 0.00 in0.0 mm 0.00 in0.0 mm 0.08 in2.0 mm
12:51 PM 49.0°F9.4°C 52.3°F11.3°C 90% Calm Calm -- 29.76 in1007.8 mb 0.00 in0.0 mm 0.00 in0.0 mm 0.08 in2.0 mm
12:54 PM 48.9°F9.4°C 52.4°F11.3°C 89% 2.8 mph W4.5 kmh W 2.8 mph4.5 kmh 29.76 in1007.8 mb 0.00 in0.0 mm 0.00 in0.0 mm 0.08 in2.0 mm
12:57 PM 49.0°F9.4°C 51.8°F11.0°C 88% 2.0 mph NNW3.2 kmh NNW 2.0 mph3.2 kmh 29.76 in1007.8 mb 0.00 in0.0 mm 0.00 in0.0 mm 0.08 in2.0 mm
01:00 PM 49.0°F9.4°C 52.0°F11.1°C 89% 4.0 mph NNW6.4 kmh NNW 4.0 mph6.4 kmh 29.74 in1007.1 mb 0.00 in0.0 mm 0.00 in0.0 mm 0.08 in2.0 mm
01:03 PM 49.0°F9.4°C 52.2°F11.2°C 90% 3.2 mph NNW5.1 kmh NNW 3.3 mph5.3 kmh 29.75 in1007.5 mb 0.00 in0.0 mm 0.00 in0.0 mm 0.08 in2.0 mm
01:06 PM 49.1°F9.5°C 51.9°F11.1°C 89% 4.0 mph W6.4 kmh W 4.0 mph6.4 kmh 29.74 in1007.1 mb 0.00 in0.0 mm 0.00 in0.0 mm 0.08 in2.0 mm
01:09 PM 49.0°F9.4°C 51.9°F11.1°C 89% 6.0 mph NNW9.7 kmh NNW 6.0 mph9.7 kmh 29.74 in1007.1 mb 0.00 in0.0 mm 0.00 in0.0 mm 0.08 in2.0 mm
01:12 PM 49.0°F9.4°C 51.9°F11.1°C 89% 1.6 mph W2.6 kmh W 1.6 mph2.6 kmh 29.74 in1007.1 mb 0.00 in0.0 mm 0.00 in0.0 mm 0.08 in2.0 mm
01:15 PM 49.0°F9.4°C 52.0°F11.1°C 89% 6.0 mph W9.7 kmh W 6.0 mph9.7 kmh 29.74 in1007.1 mb 0.00 in0.0 mm 0.00 in0.0 mm 0.08 in2.0 mm
01:18 PM 48.9°F9.4°C 51.8°F11.0°C 89% 6.7 mph W10.8 kmh W 6.8 mph10.9 kmh 29.74 in1007.1 mb 0.00 in0.0 mm 0.00 in0.0 mm 0.08 in2.0 mm
01:21 PM 49.0°F9.4°C 51.8°F11.0°C 89% 5.2 mph NW8.4 kmh NW 5.3 mph8.5 kmh 29.74 in1007.1 mb 0.00 in0.0 mm 0.00 in0.0 mm 0.08 in2.0 mm
01:24 PM 49.0°F9.4°C 51.9°F11.1°C 89% 4.8 mph W7.7 kmh W 4.9 mph7.9 kmh 29.74 in1007.1 mb 0.00 in0.0 mm 0.00 in0.0 mm 0.08 in2.0 mm
01:27 PM 49.2°F9.6°C 51.9°F11.1°C 89% 3.2 mph W5.1 kmh W 3.3 mph5.3 kmh 29.74 in1007.1 mb 0.00 in0.0 mm 0.00 in0.0 mm 0.08 in2.0 mm
01:30 PM 49.3°F9.6°C 51.9°F11.1°C 89% 4.0 mph 6.4 kmh 4.1 mph6.6 kmh 29.74 in1007.1 mb 0.00 in0.0 mm 0.00 in0.0 mm 0.08 in2.0 mm
01:33 PM 49.3°F9.6°C 51.8°F11.0°C 88% 6.8 mph WSW10.9 kmh WSW 6.8 mph10.9 kmh 29.73 in1006.8 mb 0.00 in0.0 mm 0.00 in0.0 mm 0.08 in2.0 mm
01:36 PM 49.4°F9.7°C 52.0°F11.1°C 89% 5.7 mph W9.2 kmh W 5.7 mph9.2 kmh 29.73 in1006.8 mb 0.00 in0.0 mm 0.00 in0.0 mm 0.08 in2.0 mm
01:39 PM 49.3°F9.6°C 51.8°F11.0°C 88% 6.9 mph NW11.1 kmh NW 6.9 mph11.1 kmh 29.73 in1006.8 mb 0.00 in0.0 mm 0.00 in0.0 mm 0.08 in2.0 mm
01:42 PM 49.3°F9.6°C 51.8°F11.0°C 88% 6.0 mph NNW9.7 kmh NNW 6.1 mph9.8 kmh 29.73 in1006.8 mb 0.00 in0.0 mm 0.00 in0.0 mm 0.08 in2.0 mm
01:45 PM 49.4°F9.7°C 51.7°F10.9°C 88% 4.4 mph WNW7.1 kmh WNW 4.5 mph7.2 kmh 29.73 in1006.8 mb 0.00 in0.0 mm 0.00 in0.0 mm 0.08 in2.0 mm
01:48 PM 49.4°F9.7°C 51.7°F10.9°C 88% 4.4 mph NW7.1 kmh NW 4.5 mph7.2 kmh 29.73 in1006.8 mb 0.00 in0.0 mm 0.00 in0.0 mm 0.08 in2.0 mm
01:51 PM 49.4°F9.7°C 51.7°F10.9°C 88% 3.6 mph NNW5.8 kmh NNW 3.7 mph6.0 kmh 29.72 in1006.4 mb 0.00 in0.0 mm 0.00 in0.0 mm 0.08 in2.0 mm
01:54 PM 49.3°F9.6°C 51.8°F11.0°C 88% 0.8 mph W1.3 kmh W 0.8 mph1.3 kmh 29.72 in1006.4 mb 0.00 in0.0 mm 0.00 in0.0 mm 0.08 in2.0 mm
01:57 PM 49.2°F9.6°C 51.7°F10.9°C 88% 1.6 mph W2.6 kmh W 1.6 mph2.6 kmh 29.71 in1006.1 mb 0.00 in0.0 mm 0.00 in0.0 mm 0.08 in2.0 mm
02:00 PM 49.3°F9.6°C 51.4°F10.8°C 87% 4.0 mph W6.4 kmh W 4.1 mph6.6 kmh 29.71 in1006.1 mb 0.00 in0.0 mm 0.00 in0.0 mm 0.08 in2.0 mm
02:03 PM 49.2°F9.6°C 51.6°F10.9°C 87% 3.2 mph W5.1 kmh W 3.2 mph5.1 kmh 29.71 in1006.1 mb 0.00 in0.0 mm 0.00 in0.0 mm 0.08 in2.0 mm
02:06 PM 49.1°F9.5°C 51.6°F10.9°C 87% 4.9 mph W7.9 kmh W 4.9 mph7.9 kmh 29.71 in1006.1 mb 0.00 in0.0 mm 0.00 in0.0 mm 0.08 in2.0 mm
02:09 PM 49.1°F9.5°C 51.5°F10.8°C 87% 5.2 mph NW8.4 kmh NW 5.3 mph8.5 kmh 29.71 in1006.1 mb 0.00 in0.0 mm 0.00 in0.0 mm 0.08 in2.0 mm
02:12 PM 49.3°F9.6°C 51.3°F10.7°C 87% 1.2 mph WSW1.9 kmh WSW 1.2 mph1.9 kmh 29.71 in1006.1 mb 0.00 in0.0 mm 0.00 in0.0 mm 0.08 in2.0 mm
02:15 PM 49.2°F9.6°C 51.5°F10.8°C 87% 7.1 mph W11.4 kmh W 7.2 mph11.6 kmh 29.71 in1006.1 mb 0.00 in0.0 mm 0.00 in0.0 mm 0.08 in2.0 mm
02:18 PM 49.2°F9.6°C 51.4°F10.8°C 87% 2.4 mph WSW3.9 kmh WSW 2.4 mph3.9 kmh 29.70 in1005.8 mb 0.00 in0.0 mm 0.00 in0.0 mm 0.08 in2.0 mm
02:21 PM 49.2°F9.6°C 51.3°F10.7°C 87% 4.8 mph W7.7 kmh W 4.9 mph7.9 kmh 29.70 in1005.8 mb 0.00 in0.0 mm 0.00 in0.0 mm 0.08 in2.0 mm
02:24 PM 49.1°F9.5°C 51.2°F10.7°C 86% 2.4 mph W3.9 kmh W 2.4 mph3.9 kmh 29.70 in1005.8 mb 0.00 in0.0 mm 0.00 in0.0 mm 0.08 in2.0 mm
02:27 PM 49.1°F9.5°C 51.2°F10.7°C 86% 5.2 mph WNW8.4 kmh WNW 5.3 mph8.5 kmh 29.70 in1005.8 mb 0.00 in0.0 mm 0.00 in0.0 mm 0.08 in2.0 mm
02:30 PM 49.1°F9.5°C 51.4°F10.8°C 86% 2.0 mph W3.2 kmh W 2.0 mph3.2 kmh 29.70 in1005.8 mb 0.00 in0.0 mm 0.00 in0.0 mm 0.08 in2.0 mm
02:33 PM 49.0°F9.4°C 51.3°F10.7°C 86% 1.2 mph W1.9 kmh W 1.2 mph1.9 kmh 29.69 in1005.4 mb 0.00 in0.0 mm 0.00 in0.0 mm 0.08 in2.0 mm
02:36 PM 49.0°F9.4°C 51.4°F10.8°C 86% 1.6 mph W2.6 kmh W 1.6 mph2.6 kmh 29.69 in1005.4 mb 0.00 in0.0 mm 0.00 in0.0 mm 0.08 in2.0 mm
02:39 PM 49.1°F9.5°C 51.1°F10.6°C 86% 4.0 mph W6.4 kmh W 4.1 mph6.6 kmh 29.69 in1005.4 mb 0.00 in0.0 mm 0.00 in0.0 mm 0.08 in2.0 mm
02:42 PM 49.0°F9.4°C 50.8°F10.4°C 85% 2.8 mph NNW4.5 kmh NNW 2.8 mph4.5 kmh 29.69 in1005.4 mb 0.00 in0.0 mm 0.00 in0.0 mm 0.08 in2.0 mm
02:45 PM 49.0°F9.4°C 51.0°F10.6°C 86% 2.0 mph W3.2 kmh W 2.0 mph3.2 kmh 29.69 in1005.4 mb 0.00 in0.0 mm 0.00 in0.0 mm 0.08 in2.0 mm
02:48 PM 49.0°F9.4°C 51.1°F10.6°C 86% 7.7 mph W12.4 kmh W 7.8 mph12.6 kmh 29.68 in1005.1 mb 0.00 in0.0 mm 0.00 in0.0 mm 0.08 in2.0 mm
02:51 PM 48.9°F9.4°C 50.9°F10.5°C 85% 0.4 mph NNW0.6 kmh NNW 0.4 mph0.6 kmh 29.68 in1005.1 mb 0.00 in0.0 mm 0.00 in0.0 mm 0.08 in2.0 mm
02:54 PM 49.0°F9.4°C 51.1°F10.6°C 85% 6.1 mph WSW9.8 kmh WSW 6.1 mph9.8 kmh 29.68 in1005.1 mb 0.00 in0.0 mm 0.00 in0.0 mm 0.08 in2.0 mm
02:57 PM 49.0°F9.4°C 51.1°F10.6°C 86% 4.8 mph W7.7 kmh W 4.9 mph7.9 kmh 29.68 in1005.1 mb 0.00 in0.0 mm 0.00 in0.0 mm 0.08 in2.0 mm
03:00 PM 49.0°F9.4°C 50.8°F10.4°C 85% 2.0 mph W3.2 kmh W 2.0 mph3.2 kmh 29.68 in1005.1 mb 0.00 in0.0 mm 0.00 in0.0 mm 0.08 in2.0 mm
03:03 PM 48.9°F9.4°C 50.9°F10.5°C 85% 5.7 mph WSW9.2 kmh WSW 5.7 mph9.2 kmh 29.68 in1005.1 mb 0.00 in0.0 mm 0.00 in0.0 mm 0.08 in2.0 mm
03:06 PM 49.0°F9.4°C 51.0°F10.6°C 85% 8.1 mph W13.0 kmh W 8.2 mph13.2 kmh 29.68 in1005.1 mb 0.00 in0.0 mm 0.00 in0.0 mm 0.08 in2.0 mm
03:09 PM 48.9°F9.4°C 50.9°F10.5°C 85% 2.4 mph NNW3.9 kmh NNW 2.4 mph3.9 kmh 29.68 in1005.1 mb 0.00 in0.0 mm 0.00 in0.0 mm 0.08 in2.0 mm
03:12 PM 49.0°F9.4°C 50.7°F10.4°C 85% 5.3 mph NNW8.5 kmh NNW 5.3 mph8.5 kmh 29.68 in1005.1 mb 0.00 in0.0 mm 0.00 in0.0 mm 0.08 in2.0 mm
03:15 PM 48.8°F9.3°C 50.9°F10.5°C 85% 2.8 mph WSW4.5 kmh WSW 2.8 mph4.5 kmh 29.68 in1005.1 mb 0.00 in0.0 mm 0.00 in0.0 mm 0.08 in2.0 mm
03:18 PM 48.9°F9.4°C 50.7°F10.4°C 85% 3.6 mph W5.8 kmh W 3.7 mph6.0 kmh 29.68 in1005.1 mb 0.00 in0.0 mm 0.00 in0.0 mm 0.08 in2.0 mm
03:21 PM 48.8°F9.3°C 50.7°F10.4°C 85% 4.0 mph WSW6.4 kmh WSW 4.1 mph6.6 kmh 29.68 in1005.1 mb 0.00 in0.0 mm 0.00 in0.0 mm 0.08 in2.0 mm
03:24 PM 48.8°F9.3°C 50.6°F10.3°C 85% 4.0 mph W6.4 kmh W 4.1 mph6.6 kmh 29.67 in1004.7 mb 0.00 in0.0 mm 0.00 in0.0 mm 0.08 in2.0 mm
03:27 PM 48.8°F9.3°C 50.6°F10.3°C 85% 4.1 mph W6.6 kmh W 4.1 mph6.6 kmh 29.67 in1004.7 mb 0.00 in0.0 mm 0.00 in0.0 mm 0.08 in2.0 mm
03:30 PM 48.8°F9.3°C 50.5°F10.3°C 85% 1.6 mph W2.6 kmh W 1.6 mph2.6 kmh 29.67 in1004.7 mb 0.00 in0.0 mm 0.00 in0.0 mm 0.08 in2.0 mm
03:33 PM 48.7°F9.3°C 50.8°F10.4°C 85% 6.9 mph WSW11.1 kmh WSW 6.9 mph11.1 kmh 29.67 in1004.7 mb 0.00 in0.0 mm 0.00 in0.0 mm 0.08 in2.0 mm
03:36 PM 48.8°F9.3°C 50.5°F10.3°C 85% 2.4 mph NNW3.9 kmh NNW 2.4 mph3.9 kmh 29.67 in1004.7 mb 0.00 in0.0 mm 0.00 in0.0 mm 0.08 in2.0 mm
03:39 PM 48.8°F9.3°C 50.1°F10.1°C 83% 4.4 mph W7.1 kmh W 4.4 mph7.1 kmh 29.67 in1004.7 mb 0.00 in0.0 mm 0.00 in0.0 mm 0.08 in2.0 mm
03:42 PM 48.7°F9.3°C 50.2°F10.1°C 84% 4.2 mph NNW6.8 kmh NNW 4.5 mph7.2 kmh 29.67 in1004.7 mb 0.00 in0.0 mm 0.00 in0.0 mm 0.08 in2.0 mm
03:45 PM 48.9°F9.4°C 50.5°F10.3°C 84% 2.8 mph WSW4.5 kmh WSW 2.8 mph4.5 kmh 29.66 in1004.4 mb 0.00 in0.0 mm 0.00 in0.0 mm 0.08 in2.0 mm
03:48 PM 48.7°F9.3°C 50.5°F10.3°C 85% 1.2 mph SW1.9 kmh SW 1.2 mph1.9 kmh 29.66 in1004.4 mb 0.00 in0.0 mm 0.00 in0.0 mm 0.08 in2.0 mm
03:51 PM 48.7°F9.3°C 50.4°F10.2°C 85% 2.8 mph WSW4.5 kmh WSW 2.9 mph4.7 kmh 29.66 in1004.4 mb 0.00 in0.0 mm 0.00 in0.0 mm 0.08 in2.0 mm
03:54 PM 48.5°F9.2°C 50.4°F10.2°C 84% 3.2 mph W5.1 kmh W 3.3 mph5.3 kmh 29.65 in1004.1 mb 0.00 in0.0 mm 0.00 in0.0 mm 0.08 in2.0 mm
03:57 PM 48.4°F9.1°C 50.3°F10.2°C 84% 5.2 mph W8.4 kmh W 5.2 mph8.4 kmh 29.65 in1004.1 mb 0.00 in0.0 mm 0.00 in0.0 mm 0.08 in2.0 mm
04:00 PM 48.2°F9.0°C 50.5°F10.3°C 85% 5.2 mph W8.4 kmh W 5.2 mph8.4 kmh 29.65 in1004.1 mb 0.00 in0.0 mm 0.00 in0.0 mm 0.08 in2.0 mm
04:03 PM 48.1°F8.9°C 50.2°F10.1°C 85% 1.2 mph WNW1.9 kmh WNW 1.2 mph1.9 kmh 29.65 in1004.1 mb 0.00 in0.0 mm 0.00 in0.0 mm 0.08 in2.0 mm
04:06 PM 48.0°F8.9°C 50.0°F10.0°C 84% 2.8 mph NNW4.5 kmh NNW 2.8 mph4.5 kmh 29.64 in1003.7 mb 0.00 in0.0 mm 0.00 in0.0 mm 0.10 in2.5 mm
04:09 PM 48.0°F8.9°C 50.6°F10.3°C 86% 3.2 mph W5.1 kmh W 3.3 mph5.3 kmh 29.64 in1003.7 mb 0.00 in0.0 mm 0.00 in0.0 mm 0.10 in2.5 mm
04:12 PM 47.8°F8.8°C 50.6°F10.3°C 85% 5.2 mph NNW8.4 kmh NNW 5.3 mph8.5 kmh 29.64 in1003.7 mb 0.00 in0.0 mm 0.00 in0.0 mm 0.10 in2.5 mm
04:15 PM 47.8°F8.8°C 50.7°F10.4°C 86% 4.0 mph NNW6.4 kmh NNW 4.0 mph6.4 kmh 29.64 in1003.7 mb 0.00 in0.0 mm 0.00 in0.0 mm 0.10 in2.5 mm
04:18 PM 47.8°F8.8°C 50.6°F10.3°C 86% 2.0 mph WSW3.2 kmh WSW 2.0 mph3.2 kmh 29.64 in1003.7 mb 0.00 in0.0 mm 0.00 in0.0 mm 0.12 in3.0 mm
04:21 PM 47.6°F8.7°C 50.7°F10.4°C 86% 1.2 mph SW1.9 kmh SW 1.2 mph1.9 kmh 29.64 in1003.7 mb 0.00 in0.0 mm 0.00 in0.0 mm 0.12 in3.0 mm
04:24 PM 47.6°F8.7°C 50.8°F10.4°C 87% 2.8 mph SW4.5 kmh SW 2.8 mph4.5 kmh 29.64 in1003.7 mb 0.00 in0.0 mm 0.00 in0.0 mm 0.12 in3.0 mm
04:27 PM 47.5°F8.6°C 50.7°F10.4°C 86% 2.8 mph NNW4.5 kmh NNW 2.8 mph4.5 kmh 29.64 in1003.7 mb 0.00 in0.0 mm 0.00 in0.0 mm 0.12 in3.0 mm
04:30 PM 47.5°F8.6°C 50.8°F10.4°C 87% 4.0 mph W6.4 kmh W 4.0 mph6.4 kmh 29.64 in1003.7 mb 0.00 in0.0 mm 0.00 in0.0 mm 0.14 in3.6 mm
04:33 PM 47.3°F8.5°C 50.8°F10.4°C 87% 6.5 mph SW10.5 kmh SW 6.5 mph10.5 kmh 29.64 in1003.7 mb 0.00 in0.0 mm 0.00 in0.0 mm 0.14 in3.6 mm
04:36 PM 47.3°F8.5°C 50.8°F10.4°C 88% 2.0 mph NNW3.2 kmh NNW 2.0 mph3.2 kmh 29.64 in1003.7 mb 0.00 in0.0 mm 0.00 in0.0 mm 0.14 in3.6 mm
04:39 PM 47.3°F8.5°C 50.7°F10.4°C 88% Calm Calm -- 29.63 in1003.4 mb 0.00 in0.0 mm 0.00 in0.0 mm 0.14 in3.6 mm
04:42 PM 47.3°F8.5°C 50.7°F10.4°C 87% 3.6 mph WNW5.8 kmh WNW 3.6 mph5.8 kmh 29.64 in1003.7 mb 0.00 in0.0 mm 0.00 in0.0 mm 0.14 in3.6 mm
04:45 PM 47.2°F8.4°C 50.6°F10.3°C 87% 5.6 mph NNW9.0 kmh NNW 5.7 mph9.2 kmh 29.63 in1003.4 mb 0.00 in0.0 mm 0.00 in0.0 mm 0.16 in4.1 mm
04:48 PM 47.3°F8.5°C 50.5°F10.3°C 87% 1.2 mph W1.9 kmh W 1.2 mph1.9 kmh 29.63 in1003.4 mb 0.00 in0.0 mm 0.00 in0.0 mm 0.16 in4.1 mm
04:51 PM 47.2°F8.4°C 50.4°F10.2°C 87% 5.7 mph NW9.2 kmh NW 5.7 mph9.2 kmh 29.62 in1003.0 mb 0.00 in0.0 mm 0.00 in0.0 mm 0.16 in4.1 mm
04:54 PM 47.2°F8.4°C 50.5°F10.3°C 87% 1.2 mph W1.9 kmh W 1.2 mph1.9 kmh 29.62 in1003.0 mb 0.00 in0.0 mm 0.00 in0.0 mm 0.16 in4.1 mm
04:57 PM 47.2°F8.4°C 50.4°F10.2°C 87% 4.4 mph W7.1 kmh W 4.5 mph7.2 kmh 29.61 in1002.7 mb 0.00 in0.0 mm 0.00 in0.0 mm 0.16 in4.1 mm
05:00 PM 47.2°F8.4°C 50.6°F10.3°C 88% 6.5 mph W10.5 kmh W 6.5 mph10.5 kmh 29.62 in1003.0 mb 0.00 in0.0 mm 0.00 in0.0 mm 0.16 in4.1 mm
05:03 PM 47.2°F8.4°C 50.7°F10.4°C 88% 1.2 mph W1.9 kmh W 1.2 mph1.9 kmh 29.61 in1002.7 mb 0.00 in0.0 mm 0.00 in0.0 mm 0.16 in4.1 mm
05:06 PM 47.1°F8.4°C 50.5°F10.3°C 87% 3.6 mph W5.8 kmh W 3.7 mph6.0 kmh 29.61 in1002.7 mb 0.00 in0.0 mm 0.00 in0.0 mm 0.16 in4.1 mm
05:09 PM 47.1°F8.4°C 50.5°F10.3°C 87% 5.2 mph WSW8.4 kmh WSW 5.3 mph8.5 kmh 29.61 in1002.7 mb 0.00 in0.0 mm 0.00 in0.0 mm 0.16 in4.1 mm
05:12 PM 47.2°F8.4°C 50.5°F10.3°C 88% 5.3 mph NNW8.5 kmh NNW 5.3 mph8.5 kmh 29.61 in1002.7 mb 0.00 in0.0 mm 0.00 in0.0 mm 0.16 in4.1 mm
05:15 PM 47.1°F8.4°C 50.4°F10.2°C 88% 4.0 mph W6.4 kmh W 4.1 mph6.6 kmh 29.62 in1003.0 mb 0.00 in0.0 mm 0.00 in0.0 mm 0.16 in4.1 mm
05:18 PM 47.2°F8.4°C 50.3°F10.2°C 87% 2.8 mph W4.5 kmh W 2.9 mph4.7 kmh 29.61 in1002.7 mb 0.00 in0.0 mm 0.00 in0.0 mm 0.16 in4.1 mm
05:21 PM 47.1°F8.4°C 50.5°F10.3°C 88% 4.8 mph W7.7 kmh W 4.8 mph7.7 kmh 29.61 in1002.7 mb 0.00 in0.0 mm 0.00 in0.0 mm 0.16 in4.1 mm
05:24 PM 47.1°F8.4°C 50.2°F10.1°C 88% 4.0 mph W6.4 kmh W 4.0 mph6.4 kmh 29.61 in1002.7 mb 0.00 in0.0 mm 0.00 in0.0 mm 0.16 in4.1 mm
05:27 PM 47.1°F8.4°C 50.5°F10.3°C 88% 4.4 mph SW7.1 kmh SW 4.5 mph7.2 kmh 29.61 in1002.7 mb 0.00 in0.0 mm 0.00 in0.0 mm 0.16 in4.1 mm
05:30 PM 47.2°F8.4°C 50.5°F10.3°C 88% 3.2 mph W5.1 kmh W 3.2 mph5.1 kmh 29.60 in1002.4 mb 0.00 in0.0 mm 0.00 in0.0 mm 0.16 in4.1 mm
05:33 PM 47.2°F8.4°C 50.2°F10.1°C 88% 3.6 mph NNW5.8 kmh NNW 3.7 mph6.0 kmh 29.61 in1002.7 mb 0.00 in0.0 mm 0.00 in0.0 mm 0.16 in4.1 mm
05:36 PM 47.2°F8.4°C 50.5°F10.3°C 88% 10.1 mph W16.3 kmh W 10.2 mph16.4 kmh 29.60 in1002.4 mb 0.00 in0.0 mm 0.00 in0.0 mm 0.16 in4.1 mm
05:39 PM 47.2°F8.4°C 50.0°F10.0°C 87% 3.2 mph W5.1 kmh W 3.2 mph5.1 kmh 29.60 in1002.4 mb 0.00 in0.0 mm 0.00 in0.0 mm 0.16 in4.1 mm
05:42 PM 47.2°F8.4°C 50.4°F10.2°C 88% 3.6 mph NNW5.8 kmh NNW 3.6 mph5.8 kmh 29.60 in1002.4 mb 0.00 in0.0 mm 0.00 in0.0 mm 0.16 in4.1 mm
05:45 PM 47.3°F8.5°C 50.2°F10.1°C 88% 8.1 mph W13.0 kmh W 8.1 mph13.0 kmh 29.60 in1002.4 mb 0.00 in0.0 mm 0.00 in0.0 mm 0.16 in4.1 mm
05:48 PM 47.1°F8.4°C 50.2°F10.1°C 88% 1.6 mph NNW2.6 kmh NNW 1.6 mph2.6 kmh 29.59 in1002.0 mb 0.00 in0.0 mm 0.00 in0.0 mm 0.16 in4.1 mm
05:51 PM 47.2°F8.4°C 50.4°F10.2°C 88% 6.1 mph SW9.8 kmh SW 6.1 mph9.8 kmh 29.59 in1002.0 mb 0.00 in0.0 mm 0.00 in0.0 mm 0.16 in4.1 mm
05:54 PM 47.1°F8.4°C 50.4°F10.2°C 88% 6.0 mph W9.7 kmh W 6.0 mph9.7 kmh 29.59 in1002.0 mb 0.00 in0.0 mm 0.00 in0.0 mm 0.16 in4.1 mm
05:57 PM 47.1°F8.4°C 50.2°F10.1°C 87% Calm Calm -- 29.59 in1002.0 mb 0.00 in0.0 mm 0.00 in0.0 mm 0.16 in4.1 mm
06:00 PM 47.1°F8.4°C 50.4°F10.2°C 88% 4.9 mph SW7.9 kmh SW 4.9 mph7.9 kmh 29.58 in1001.7 mb 0.00 in0.0 mm 0.00 in0.0 mm 0.16 in4.1 mm
06:03 PM 47.1°F8.4°C 50.2°F10.1°C 88% 12.5 mph NNW20.1 kmh NNW 12.5 mph20.1 kmh 29.58 in1001.7 mb 0.00 in0.0 mm 0.00 in0.0 mm 0.16 in4.1 mm
06:06 PM 47.1°F8.4°C 50.3°F10.2°C 88% 7.3 mph W11.7 kmh W 7.3 mph11.7 kmh 29.58 in1001.7 mb 0.00 in0.0 mm 0.00 in0.0 mm 0.16 in4.1 mm
06:09 PM 47.2°F8.4°C 50.2°F10.1°C 88% 3.6 mph NNW5.8 kmh NNW 3.6 mph5.8 kmh 29.58 in1001.7 mb 0.00 in0.0 mm 0.00 in0.0 mm 0.16 in4.1 mm
06:12 PM 47.1°F8.4°C 50.4°F10.2°C 88% 3.2 mph WSW5.1 kmh WSW 3.3 mph5.3 kmh 29.58 in1001.7 mb 0.00 in0.0 mm 0.00 in0.0 mm 0.16 in4.1 mm
06:15 PM 47.1°F8.4°C 50.0°F10.0°C 87% 7.2 mph NNW11.6 kmh NNW 7.3 mph11.7 kmh 29.58 in1001.7 mb 0.00 in0.0 mm 0.00 in0.0 mm 0.16 in4.1 mm
06:18 PM 47.0°F8.3°C 50.1°F10.1°C 88% 2.8 mph SW4.5 kmh SW 2.9 mph4.7 kmh 29.58 in1001.7 mb 0.00 in0.0 mm 0.00 in0.0 mm 0.16 in4.1 mm
06:21 PM 46.9°F8.3°C 50.1°F10.1°C 88% 2.0 mph WSW3.2 kmh WSW 2.0 mph3.2 kmh 29.58 in1001.7 mb 0.00 in0.0 mm 0.00 in0.0 mm 0.16 in4.1 mm
06:24 PM 46.9°F8.3°C 50.0°F10.0°C 88% 5.6 mph WSW9.0 kmh WSW 5.7 mph9.2 kmh 29.58 in1001.7 mb 0.00 in0.0 mm 0.00 in0.0 mm 0.16 in4.1 mm
06:27 PM 47.0°F8.3°C 50.1°F10.1°C 87% 4.8 mph W7.7 kmh W 4.9 mph7.9 kmh 29.58 in1001.7 mb 0.00 in0.0 mm 0.00 in0.0 mm 0.16 in4.1 mm
06:30 PM 47.0°F8.3°C 50.0°F10.0°C 87% 3.6 mph W5.8 kmh W 3.7 mph6.0 kmh 29.58 in1001.7 mb 0.00 in0.0 mm 0.00 in0.0 mm 0.16 in4.1 mm
06:33 PM 47.0°F8.3°C 50.0°F10.0°C 87% 6.9 mph W11.1 kmh W 6.9 mph11.1 kmh 29.58 in1001.7 mb 0.00 in0.0 mm 0.00 in0.0 mm 0.16 in4.1 mm
06:36 PM 47.0°F8.3°C 49.9°F9.9°C 87% 0.8 mph WSW1.3 kmh WSW 0.8 mph1.3 kmh 29.58 in1001.7 mb 0.00 in0.0 mm 0.00 in0.0 mm 0.16 in4.1 mm
06:39 PM 47.0°F8.3°C 49.5°F9.7°C 86% 2.0 mph NNW3.2 kmh NNW 2.0 mph3.2 kmh 29.57 in1001.4 mb 0.00 in0.0 mm 0.00 in0.0 mm 0.16 in4.1 mm
06:42 PM 47.0°F8.3°C 49.5°F9.7°C 86% 10.5 mph WSW16.9 kmh WSW 10.5 mph16.9 kmh 29.57 in1001.4 mb 0.00 in0.0 mm 0.00 in0.0 mm 0.16 in4.1 mm
06:45 PM 47.2°F8.4°C 49.6°F9.8°C 86% 7.7 mph SW12.4 kmh SW 7.7 mph12.4 kmh 29.57 in1001.4 mb 0.00 in0.0 mm 0.00 in0.0 mm 0.16 in4.1 mm
06:48 PM 47.0°F8.3°C 49.5°F9.7°C 86% 4.0 mph NW6.4 kmh NW 4.0 mph6.4 kmh 29.56 in1001.0 mb 0.00 in0.0 mm 0.00 in0.0 mm 0.16 in4.1 mm
06:51 PM 47.0°F8.3°C 49.7°F9.8°C 86% 5.3 mph WNW8.5 kmh WNW 5.3 mph8.5 kmh 29.56 in1001.0 mb 0.00 in0.0 mm 0.00 in0.0 mm 0.16 in4.1 mm
06:54 PM 47.0°F8.3°C 49.4°F9.7°C 86% 5.2 mph NNW8.4 kmh NNW 5.3 mph8.5 kmh 29.56 in1001.0 mb 0.00 in0.0 mm 0.00 in0.0 mm 0.16 in4.1 mm
06:57 PM 47.0°F8.3°C 49.3°F9.6°C 86% 3.6 mph NNW5.8 kmh NNW 3.7 mph6.0 kmh 29.55 in1000.7 mb 0.00 in0.0 mm 0.00 in0.0 mm 0.16 in4.1 mm
07:00 PM 47.0°F8.3°C 49.2°F9.6°C 85% 2.8 mph SW4.5 kmh SW 2.8 mph4.5 kmh 29.55 in1000.7 mb 0.00 in0.0 mm 0.00 in0.0 mm 0.16 in4.1 mm
07:03 PM 46.9°F8.3°C 49.5°F9.7°C 86% 3.6 mph NNW5.8 kmh NNW 3.7 mph6.0 kmh 29.55 in1000.7 mb 0.00 in0.0 mm 0.00 in0.0 mm 0.16 in4.1 mm
07:06 PM 46.9°F8.3°C 49.2°F9.6°C 85% 1.2 mph WNW1.9 kmh WNW 1.2 mph1.9 kmh 29.55 in1000.7 mb 0.00 in0.0 mm 0.00 in0.0 mm 0.16 in4.1 mm
07:09 PM 46.9°F8.3°C 49.0°F9.4°C 85% 4.0 mph NNW6.4 kmh NNW 4.1 mph6.6 kmh 29.55 in1000.7 mb 0.00 in0.0 mm 0.00 in0.0 mm 0.16 in4.1 mm
07:12 PM 47.0°F8.3°C 48.9°F9.4°C 84% 6.4 mph WSW10.3 kmh WSW 6.4 mph10.3 kmh 29.55 in1000.7 mb 0.00 in0.0 mm 0.00 in0.0 mm 0.16 in4.1 mm
07:15 PM 46.9°F8.3°C 49.0°F9.4°C 85% 8.3 mph NNW13.4 kmh NNW 8.4 mph13.5 kmh 29.55 in1000.7 mb 0.00 in0.0 mm 0.00 in0.0 mm 0.16 in4.1 mm
07:18 PM 47.0°F8.3°C 48.8°F9.3°C 84% 1.6 mph WSW2.6 kmh WSW 1.6 mph2.6 kmh 29.55 in1000.7 mb 0.00 in0.0 mm 0.00 in0.0 mm 0.16 in4.1 mm
07:21 PM 46.9°F8.3°C 48.8°F9.3°C 84% 2.4 mph NNW3.9 kmh NNW 2.4 mph3.9 kmh 29.55 in1000.7 mb 0.00 in0.0 mm 0.00 in0.0 mm 0.16 in4.1 mm
07:24 PM 46.9°F8.3°C 48.8°F9.3°C 84% 10.5 mph W16.9 kmh W 10.6 mph17.1 kmh 29.55 in1000.7 mb 0.00 in0.0 mm 0.00 in0.0 mm 0.16 in4.1 mm
07:27 PM 47.2°F8.4°C 48.4°F9.1°C 84% 6.9 mph W11.1 kmh W 6.9 mph11.1 kmh 29.55 in1000.7 mb 0.00 in0.0 mm 0.00 in0.0 mm 0.16 in4.1 mm
07:30 PM 47.0°F8.3°C 48.3°F9.1°C 83% 8.5 mph NNW13.7 kmh NNW 8.6 mph13.8 kmh 29.55 in1000.7 mb 0.00 in0.0 mm 0.00 in0.0 mm 0.16 in4.1 mm
07:33 PM 46.7°F8.2°C 48.5°F9.2°C 84% 2.8 mph SW4.5 kmh SW 2.9 mph4.7 kmh 29.54 in1000.3 mb 0.00 in0.0 mm 0.00 in0.0 mm 0.16 in4.1 mm
07:36 PM 46.9°F8.3°C 48.4°F9.1°C 83% 2.0 mph NNW3.2 kmh NNW 2.0 mph3.2 kmh 29.54 in1000.3 mb 0.00 in0.0 mm 0.00 in0.0 mm 0.16 in4.1 mm
07:39 PM 46.9°F8.3°C 48.2°F9.0°C 83% 5.7 mph SW9.2 kmh SW 5.7 mph9.2 kmh 29.53 in1000.0 mb 0.00 in0.0 mm 0.00 in0.0 mm 0.16 in4.1 mm
07:42 PM 46.9°F8.3°C 48.3°F9.1°C 83% 4.0 mph WSW6.4 kmh WSW 4.1 mph6.6 kmh 29.54 in1000.3 mb 0.00 in0.0 mm 0.00 in0.0 mm 0.16 in4.1 mm
07:45 PM 46.6°F8.1°C 48.3°F9.1°C 83% 3.6 mph WNW5.8 kmh WNW 3.7 mph6.0 kmh 29.54 in1000.3 mb 0.00 in0.0 mm 0.00 in0.0 mm 0.16 in4.1 mm
07:48 PM 46.6°F8.1°C 48.2°F9.0°C 83% 2.8 mph NNW4.5 kmh NNW 2.8 mph4.5 kmh 29.53 in1000.0 mb 0.00 in0.0 mm 0.00 in0.0 mm 0.16 in4.1 mm
07:51 PM 46.6°F8.1°C 48.3°F9.1°C 83% 2.0 mph NNW3.2 kmh NNW 2.0 mph3.2 kmh 29.53 in1000.0 mb 0.00 in0.0 mm 0.00 in0.0 mm 0.16 in4.1 mm
07:54 PM 46.6°F8.1°C 48.2°F9.0°C 82% 4.4 mph W7.1 kmh W 4.4 mph7.1 kmh 29.53 in1000.0 mb 0.00 in0.0 mm 0.00 in0.0 mm 0.16 in4.1 mm
07:57 PM 46.6°F8.1°C 48.4°F9.1°C 83% 7.9 mph W12.7 kmh W 8.0 mph12.9 kmh 29.53 in1000.0 mb 0.00 in0.0 mm 0.00 in0.0 mm 0.16 in4.1 mm
08:00 PM 46.5°F8.1°C 48.0°F8.9°C 82% 5.6 mph W9.0 kmh W 5.7 mph9.2 kmh 29.53 in1000.0 mb 0.00 in0.0 mm 0.00 in0.0 mm 0.16 in4.1 mm
08:03 PM 46.3°F7.9°C 48.4°F9.1°C 84% 5.7 mph W9.2 kmh W 5.7 mph9.2 kmh 29.52 in999.7 mb 0.00 in0.0 mm 0.00 in0.0 mm 0.16 in4.1 mm
08:06 PM 46.2°F7.9°C 48.4°F9.1°C 84% 5.6 mph W9.0 kmh W 5.6 mph9.0 kmh 29.52 in999.7 mb 0.00 in0.0 mm 0.00 in0.0 mm 0.16 in4.1 mm
08:09 PM 46.1°F7.8°C 48.4°F9.1°C 84% 4.8 mph NNW7.7 kmh NNW 4.8 mph7.7 kmh 29.52 in999.7 mb 0.00 in0.0 mm 0.00 in0.0 mm 0.16 in4.1 mm
08:12 PM 46.1°F7.8°C 48.3°F9.1°C 84% Calm Calm -- 29.52 in999.7 mb 0.00 in0.0 mm 0.00 in0.0 mm 0.18 in4.6 mm
08:15 PM 46.1°F7.8°C 48.3°F9.1°C 84% 7.2 mph W11.6 kmh W 7.2 mph11.6 kmh 29.52 in999.7 mb 0.00 in0.0 mm 0.00 in0.0 mm 0.18 in4.6 mm
08:18 PM 46.1°F7.8°C 48.3°F9.1°C 84% 8.3 mph W13.4 kmh W 8.3 mph13.4 kmh 29.51 in999.3 mb 0.00 in0.0 mm 0.00 in0.0 mm 0.18 in4.6 mm
08:21 PM 46.1°F7.8°C 48.4°F9.1°C 84% 4.0 mph W6.4 kmh W 4.1 mph6.6 kmh 29.51 in999.3 mb 0.00 in0.0 mm 0.00 in0.0 mm 0.18 in4.6 mm
08:27 PM 46.2°F7.9°C 48.3°F9.1°C 84% 7.7 mph NNW12.4 kmh NNW 7.8 mph12.6 kmh 29.52 in999.7 mb 0.00 in0.0 mm 0.00 in0.0 mm 0.18 in4.6 mm
08:30 PM 46.1°F7.8°C 48.2°F9.0°C 84% 6.8 mph NNW10.9 kmh NNW 6.8 mph10.9 kmh 29.51 in999.3 mb 0.00 in0.0 mm 0.00 in0.0 mm 0.18 in4.6 mm
08:33 PM 46.2°F7.9°C 48.0°F8.9°C 84% 4.8 mph W7.7 kmh W 4.9 mph7.9 kmh 29.52 in999.7 mb 0.00 in0.0 mm 0.00 in0.0 mm 0.18 in4.6 mm
08:36 PM 46.1°F7.8°C 48.1°F8.9°C 84% 4.8 mph WNW7.7 kmh WNW 4.9 mph7.9 kmh 29.51 in999.3 mb 0.00 in0.0 mm 0.00 in0.0 mm 0.18 in4.6 mm
08:39 PM 46.1°F7.8°C 48.4°F9.1°C 85% 5.7 mph W9.2 kmh W 5.7 mph9.2 kmh 29.51 in999.3 mb 0.00 in0.0 mm 0.00 in0.0 mm 0.18 in4.6 mm
08:42 PM 46.0°F7.8°C 48.4°F9.1°C 85% 4.4 mph W7.1 kmh W 4.5 mph7.2 kmh 29.51 in999.3 mb 0.00 in0.0 mm 0.00 in0.0 mm 0.18 in4.6 mm
08:45 PM 46.2°F7.9°C 48.1°F8.9°C 84% 1.6 mph NNW2.6 kmh NNW 1.6 mph2.6 kmh 29.51 in999.3 mb 0.00 in0.0 mm 0.00 in0.0 mm 0.18 in4.6 mm
08:48 PM 46.0°F7.8°C 47.9°F8.8°C 84% 3.2 mph W5.1 kmh W 3.3 mph5.3 kmh 29.51 in999.3 mb 0.00 in0.0 mm 0.00 in0.0 mm 0.18 in4.6 mm
08:51 PM 46.0°F7.8°C 48.3°F9.1°C 85% 2.4 mph WSW3.9 kmh WSW 2.4 mph3.9 kmh 29.51 in999.3 mb 0.00 in0.0 mm 0.00 in0.0 mm 0.18 in4.6 mm
08:54 PM 45.8°F7.7°C 48.2°F9.0°C 85% 3.2 mph WSW5.1 kmh WSW 3.3 mph5.3 kmh 29.51 in999.3 mb 0.00 in0.0 mm 0.00 in0.0 mm 0.18 in4.6 mm
08:57 PM 45.8°F7.7°C 48.3°F9.1°C 85% 1.6 mph NNW2.6 kmh NNW 1.6 mph2.6 kmh 29.51 in999.3 mb 0.00 in0.0 mm 0.00 in0.0 mm 0.18 in4.6 mm
09:00 PM 45.8°F7.7°C 48.0°F8.9°C 84% 2.8 mph W4.5 kmh W 2.8 mph4.5 kmh 29.50 in999.0 mb 0.00 in0.0 mm 0.00 in0.0 mm 0.18 in4.6 mm
09:03 PM 45.8°F7.7°C 48.3°F9.1°C 84% 2.8 mph W4.5 kmh W 2.8 mph4.5 kmh 29.51 in999.3 mb 0.00 in0.0 mm 0.00 in0.0 mm 0.18 in4.6 mm
09:06 PM 45.8°F7.7°C 48.3°F9.1°C 85% 0.4 mph NW0.6 kmh NW 0.4 mph0.6 kmh 29.50 in999.0 mb 0.00 in0.0 mm 0.00 in0.0 mm 0.18 in4.6 mm
09:09 PM 45.8°F7.7°C 48.1°F8.9°C 85% 2.4 mph WSW3.9 kmh WSW 2.4 mph3.9 kmh 29.51 in999.3 mb 0.00 in0.0 mm 0.00 in0.0 mm 0.18 in4.6 mm
09:15 PM 45.8°F7.7°C 48.5°F9.2°C 86% 4.4 mph NNW7.1 kmh NNW 4.4 mph7.1 kmh 29.51 in999.3 mb 0.00 in0.0 mm 0.00 in0.0 mm 0.18 in4.6 mm
09:18 PM 46.0°F7.8°C 48.6°F9.2°C 86% 0.4 mph WNW0.6 kmh WNW 0.4 mph0.6 kmh 29.50 in999.0 mb 0.00 in0.0 mm 0.00 in0.0 mm 0.18 in4.6 mm
09:21 PM 45.7°F7.6°C 48.4°F9.1°C 86% 4.4 mph NNW7.1 kmh NNW 4.4 mph7.1 kmh 29.51 in999.3 mb 0.00 in0.0 mm 0.00 in0.0 mm 0.18 in4.6 mm
09:24 PM 45.7°F7.6°C 48.5°F9.2°C 86% 2.4 mph WSW3.9 kmh WSW 2.4 mph3.9 kmh 29.51 in999.3 mb 0.00 in0.0 mm 0.00 in0.0 mm 0.18 in4.6 mm
09:27 PM 45.6°F7.6°C 48.5°F9.2°C 85% 3.6 mph NNW5.8 kmh NNW 3.7 mph6.0 kmh 29.50 in999.0 mb 0.00 in0.0 mm 0.00 in0.0 mm 0.18 in4.6 mm
09:30 PM 45.6°F7.6°C 48.6°F9.2°C 87% 6.8 mph WNW10.9 kmh WNW 6.8 mph10.9 kmh 29.50 in999.0 mb 0.00 in0.0 mm 0.00 in0.0 mm 0.18 in4.6 mm
09:33 PM 45.6°F7.6°C 48.7°F9.3°C 87% 5.6 mph SW9.0 kmh SW 5.7 mph9.2 kmh 29.50 in999.0 mb 0.00 in0.0 mm 0.00 in0.0 mm 0.18 in4.6 mm
09:36 PM 45.5°F7.5°C 48.4°F9.1°C 86% 2.8 mph W4.5 kmh W 2.8 mph4.5 kmh 29.50 in999.0 mb 0.00 in0.0 mm 0.00 in0.0 mm 0.18 in4.6 mm
09:39 PM 45.5°F7.5°C 48.7°F9.3°C 87% 2.8 mph SW4.5 kmh SW 2.9 mph4.7 kmh 29.50 in999.0 mb 0.00 in0.0 mm 0.00 in0.0 mm 0.18 in4.6 mm
09:42 PM 45.5°F7.5°C 48.5°F9.2°C 87% 6.0 mph WSW9.7 kmh WSW 6.0 mph9.7 kmh 29.50 in999.0 mb 0.00 in0.0 mm 0.00 in0.0 mm 0.18 in4.6 mm
09:45 PM 45.5°F7.5°C 48.8°F9.3°C 87% 5.3 mph SW8.5 kmh SW 5.3 mph8.5 kmh 29.50 in999.0 mb 0.00 in0.0 mm 0.00 in0.0 mm 0.18 in4.6 mm
09:48 PM 45.5°F7.5°C 48.7°F9.3°C 87% 5.2 mph WSW8.4 kmh WSW 5.2 mph8.4 kmh 29.49 in998.6 mb 0.00 in0.0 mm 0.00 in0.0 mm 0.18 in4.6 mm
09:51 PM 45.5°F7.5°C 48.9°F9.4°C 88% 6.5 mph NNW10.5 kmh NNW 6.5 mph10.5 kmh 29.49 in998.6 mb 0.00 in0.0 mm 0.00 in0.0 mm 0.18 in4.6 mm
09:54 PM 45.6°F7.6°C 48.8°F9.3°C 87% 8.1 mph W13.0 kmh W 8.1 mph13.0 kmh 29.49 in998.6 mb 0.00 in0.0 mm 0.00 in0.0 mm 0.18 in4.6 mm
09:57 PM 45.6°F7.6°C 48.7°F9.3°C 88% 0.4 mph WSW0.6 kmh WSW 0.4 mph0.6 kmh 29.49 in998.6 mb 0.00 in0.0 mm 0.00 in0.0 mm 0.18 in4.6 mm
10:00 PM 45.5°F7.5°C 48.8°F9.3°C 88% 4.4 mph W7.1 kmh W 4.5 mph7.2 kmh 29.49 in998.6 mb 0.00 in0.0 mm 0.00 in0.0 mm 0.20 in5.1 mm
10:03 PM 45.5°F7.5°C 48.7°F9.3°C 88% 1.2 mph SW1.9 kmh SW 1.2 mph1.9 kmh 29.49 in998.6 mb 0.00 in0.0 mm 0.00 in0.0 mm 0.20 in5.1 mm
10:06 PM 45.5°F7.5°C 48.7°F9.3°C 88% 6.9 mph W11.1 kmh W 6.9 mph11.1 kmh 29.49 in998.6 mb 0.00 in0.0 mm 0.00 in0.0 mm 0.20 in5.1 mm
10:09 PM 45.5°F7.5°C 48.9°F9.4°C 88% 0.8 mph ENE1.3 kmh ENE 0.8 mph1.3 kmh 29.49 in998.6 mb 0.00 in0.0 mm 0.00 in0.0 mm 0.20 in5.1 mm
10:12 PM 45.7°F7.6°C 48.8°F9.3°C 88% 7.2 mph W11.6 kmh W 7.2 mph11.6 kmh 29.49 in998.6 mb 0.00 in0.0 mm 0.00 in0.0 mm 0.20 in5.1 mm
10:15 PM 45.6°F7.6°C 48.9°F9.4°C 89% 7.5 mph NNW12.1 kmh NNW 7.6 mph12.2 kmh 29.49 in998.6 mb 0.00 in0.0 mm 0.00 in0.0 mm 0.20 in5.1 mm
10:21 PM 45.6°F7.6°C 48.9°F9.4°C 89% 6.1 mph SW9.8 kmh SW 6.1 mph9.8 kmh 29.48 in998.3 mb 0.00 in0.0 mm 0.00 in0.0 mm 0.20 in5.1 mm
10:24 PM 45.8°F7.7°C 48.9°F9.4°C 89% 11.5 mph WSW18.5 kmh WSW 11.5 mph18.5 kmh 29.49 in998.6 mb 0.00 in0.0 mm 0.00 in0.0 mm 0.20 in5.1 mm
10:27 PM 45.8°F7.7°C 48.9°F9.4°C 89% 10.9 mph W17.5 kmh W 11.0 mph17.7 kmh 29.49 in998.6 mb 0.00 in0.0 mm 0.00 in0.0 mm 0.20 in5.1 mm
10:30 PM 46.0°F7.8°C 48.8°F9.3°C 89% 10.0 mph WNW16.1 kmh WNW 10.1 mph16.3 kmh 29.49 in998.6 mb 0.00 in0.0 mm 0.00 in0.0 mm 0.22 in5.6 mm
10:33 PM 45.8°F7.7°C 48.8°F9.3°C 89% 7.7 mph WSW12.4 kmh WSW 7.8 mph12.6 kmh 29.48 in998.3 mb 0.00 in0.0 mm 0.00 in0.0 mm 0.22 in5.6 mm
10:36 PM 46.1°F7.8°C 49.1°F9.5°C 89% 7.5 mph NNW12.1 kmh NNW 7.5 mph12.1 kmh 29.49 in998.6 mb 0.00 in0.0 mm 0.00 in0.0 mm 0.22 in5.6 mm
10:39 PM 46.0°F7.8°C 48.8°F9.3°C 88% 9.6 mph W15.4 kmh W 9.6 mph15.4 kmh 29.49 in998.6 mb 0.00 in0.0 mm 0.00 in0.0 mm 0.22 in5.6 mm
10:42 PM 46.2°F7.9°C 48.9°F9.4°C 88% 10.3 mph NNW16.6 kmh NNW 10.4 mph16.7 kmh 29.49 in998.6 mb 0.00 in0.0 mm 0.00 in0.0 mm 0.22 in5.6 mm
10:45 PM 46.1°F7.8°C 49.0°F9.4°C 88% 2.0 mph WSW3.2 kmh WSW 2.0 mph3.2 kmh 29.48 in998.3 mb 0.00 in0.0 mm 0.00 in0.0 mm 0.22 in5.6 mm
10:48 PM 46.1°F7.8°C 48.9°F9.4°C 88% 6.4 mph NNW10.3 kmh NNW 6.4 mph10.3 kmh 29.48 in998.3 mb 0.00 in0.0 mm 0.00 in0.0 mm 0.22 in5.6 mm
10:51 PM 46.2°F7.9°C 48.9°F9.4°C 88% 5.3 mph W8.5 kmh W 5.3 mph8.5 kmh 29.48 in998.3 mb 0.00 in0.0 mm 0.00 in0.0 mm 0.22 in5.6 mm
10:54 PM 46.3°F7.9°C 48.7°F9.3°C 88% 17.4 mph NNW28.0 kmh NNW 17.6 mph28.3 kmh 29.49 in998.6 mb 0.00 in0.0 mm 0.00 in0.0 mm 0.22 in5.6 mm
11:00 PM 46.4°F8.0°C 48.6°F9.2°C 87% 5.2 mph WSW8.4 kmh WSW 5.3 mph8.5 kmh 29.49 in998.6 mb 0.00 in0.0 mm 0.00 in0.0 mm 0.22 in5.6 mm
11:03 PM 46.4°F8.0°C 48.6°F9.2°C 87% 4.8 mph NNW7.7 kmh NNW 4.8 mph7.7 kmh 29.49 in998.6 mb 0.00 in0.0 mm 0.00 in0.0 mm 0.22 in5.6 mm
11:06 PM 46.3°F7.9°C 48.9°F9.4°C 88% 9.3 mph W15.0 kmh W 9.4 mph15.1 kmh 29.50 in999.0 mb 0.00 in0.0 mm 0.00 in0.0 mm 0.22 in5.6 mm
11:09 PM 46.2°F7.9°C 49.0°F9.4°C 88% 17.3 mph NW27.8 kmh NW 17.3 mph27.8 kmh 29.50 in999.0 mb 0.00 in0.0 mm 0.00 in0.0 mm 0.22 in5.6 mm
11:12 PM 46.2°F7.9°C 48.9°F9.4°C 88% 6.1 mph NW9.8 kmh NW 6.1 mph9.8 kmh 29.50 in999.0 mb 0.00 in0.0 mm 0.00 in0.0 mm 0.22 in5.6 mm
11:15 PM 46.1°F7.8°C 49.1°F9.5°C 88% 3.6 mph 5.8 kmh 3.7 mph6.0 kmh 29.50 in999.0 mb 0.00 in0.0 mm 0.00 in0.0 mm 0.22 in5.6 mm
11:18 PM 46.0°F7.8°C 49.0°F9.4°C 89% 9.5 mph W15.3 kmh W 9.6 mph15.4 kmh 29.51 in999.3 mb 0.00 in0.0 mm 0.00 in0.0 mm 0.22 in5.6 mm
11:21 PM 45.8°F7.7°C 49.1°F9.5°C 89% 8.1 mph NW13.0 kmh NW 8.1 mph13.0 kmh 29.51 in999.3 mb 0.00 in0.0 mm 0.00 in0.0 mm 0.24 in6.1 mm
11:24 PM 45.7°F7.6°C 48.7°F9.3°C 89% 14.6 mph NNW23.5 kmh NNW 14.7 mph23.7 kmh 29.51 in999.3 mb 0.00 in0.0 mm 0.00 in0.0 mm 0.24 in6.1 mm
11:27 PM 45.6°F7.6°C 48.4°F9.1°C 88% 15.5 mph NW24.9 kmh NW 15.6 mph25.1 kmh 29.51 in999.3 mb 0.00 in0.0 mm 0.00 in0.0 mm 0.24 in6.1 mm
11:30 PM 45.6°F7.6°C 48.1°F8.9°C 87% 11.2 mph NNW18.0 kmh NNW 11.3 mph18.2 kmh 29.51 in999.3 mb 0.00 in0.0 mm 0.00 in0.0 mm 0.24 in6.1 mm
11:33 PM 45.4°F7.4°C 48.3°F9.1°C 87% 8.1 mph NNW13.0 kmh NNW 8.1 mph13.0 kmh 29.53 in1000.0 mb 0.00 in0.0 mm 0.00 in0.0 mm 0.24 in6.1 mm
11:36 PM 45.4°F7.4°C 48.2°F9.0°C 87% 4.8 mph W7.7 kmh W 4.9 mph7.9 kmh 29.53 in1000.0 mb 0.00 in0.0 mm 0.00 in0.0 mm 0.24 in6.1 mm
11:39 PM 45.4°F7.4°C 48.1°F8.9°C 87% 11.5 mph NW18.5 kmh NW 11.6 mph18.7 kmh 29.53 in1000.0 mb 0.00 in0.0 mm 0.00 in0.0 mm 0.24 in6.1 mm
11:42 PM 45.3°F7.4°C 47.9°F8.8°C 87% 12.1 mph NNW19.5 kmh NNW 12.2 mph19.6 kmh 29.53 in1000.0 mb 0.00 in0.0 mm 0.00 in0.0 mm 0.24 in6.1 mm
11:45 PM 45.2°F7.3°C 47.6°F8.7°C 86% 4.8 mph NW7.7 kmh NW 4.9 mph7.9 kmh 29.53 in1000.0 mb 0.00 in0.0 mm 0.00 in0.0 mm 0.24 in6.1 mm
11:48 PM 45.2°F7.3°C 46.8°F8.2°C 85% 16.7 mph NNW26.9 kmh NNW 16.7 mph26.9 kmh 29.55 in1000.7 mb 0.00 in0.0 mm 0.00 in0.0 mm 0.24 in6.1 mm
11:51 PM 44.9°F7.2°C 47.0°F8.3°C 86% 10.4 mph NNW16.7 kmh NNW 10.5 mph16.9 kmh 29.55 in1000.7 mb 0.00 in0.0 mm 0.00 in0.0 mm 0.24 in6.1 mm
11:54 PM 44.7°F7.1°C 46.9°F8.3°C 86% 7.7 mph WNW12.4 kmh WNW 7.8 mph12.6 kmh 29.55 in1000.7 mb 0.00 in0.0 mm 0.00 in0.0 mm 0.24 in6.1 mm
11:57 PM 44.6°F7.0°C 47.1°F8.4°C 86% 11.7 mph WNW18.8 kmh WNW 11.8 mph19.0 kmh 29.55 in1000.7 mb 0.00 in0.0 mm 0.00 in0.0 mm 0.24 in6.1 mm